Time,TemperatureF,DewpointF,PressureIn,WindDirection,WindDirectionDegrees,WindSpeedMPH,WindSpeedGustMPH,Humidity,HourlyPrecipIn,Conditions,Clouds,dailyrainin,SoftwareType,DateUTC
2013-06-08 03:10:00,67.3,40.8,29.87,South,179,2.0,5.0,38,0.00,,---,0.00,VWS V12.07,2013-06-08 10:10:00,
2013-06-08 09:16:00,67.4,40.9,29.87,South,179,0.0,5.0,38,0.00,,---,0.00,VWS V12.07,2013-06-08 16:16:00,
2013-06-08 09:17:00,67.4,40.9,29.87,South,179,0.0,5.0,38,0.00,,---,0.00,VWS V12.07,2013-06-08 16:17:00,
2013-06-08 09:20:00,67.6,41.8,29.87,South,185,6.0,6.0,39,0.00,,---,0.00,VWS V12.07,2013-06-08 16:20:00,
2013-06-08 09:22:00,67.8,40.6,29.87,NW,309,3.0,6.0,37,0.00,,---,0.00,VWS V12.07,2013-06-08 16:22:00,
2013-06-08 09:23:00,67.8,40.6,29.87,NW,309,0.0,6.0,37,0.00,,---,0.00,VWS V12.07,2013-06-08 16:23:00,
2013-06-08 09:27:00,67.8,40.6,29.87,NW,309,0.0,6.0,37,0.00,,---,0.00,VWS V12.07,2013-06-08 16:27:00,
2013-06-08 09:28:00,67.8,40.6,29.87,NW,309,0.0,6.0,37,0.00,,---,0.00,VWS V12.07,2013-06-08 16:28:00,
2013-06-08 09:29:00,68.3,41.7,29.87,NNW,332,2.0,6.0,38,0.00,,---,0.00,VWS V12.07,2013-06-08 16:29:00,
2013-06-08 09:30:00,68.6,39.9,29.90,NW,315,0.0,6.0,35,0.00,,---,0.00,VWS V12.07,2013-06-08 16:30:00,
2013-06-08 09:32:00,68.8,40.8,29.90,NW,318,1.0,6.0,36,0.00,,---,0.00,VWS V12.07,2013-06-08 16:32:00,
2013-06-08 09:33:00,68.8,40.8,29.90,NW,318,0.0,6.0,36,0.00,,---,0.00,VWS V12.07,2013-06-08 16:33:00,
2013-06-08 09:34:00,68.8,40.1,29.90,NW,318,0.0,6.0,35,0.00,,---,0.00,VWS V12.07,2013-06-08 16:34:00,
2013-06-08 09:35:00,69.4,40.6,29.90,NW,318,0.0,6.0,35,0.00,,---,0.00,VWS V12.07,2013-06-08 16:35:00,
2013-06-08 09:38:00,70.1,39.7,29.90,WNW,302,0.0,6.0,33,0.00,,---,0.00,VWS V12.07,2013-06-08 16:38:00,
2013-06-08 09:39:00,70.1,40.5,29.90,WNW,302,0.0,6.0,34,0.00,,---,0.00,VWS V12.07,2013-06-08 16:39:00,
2013-06-08 09:40:00,70.1,40.5,29.90,WNW,302,0.0,6.0,34,0.00,,---,0.00,VWS V12.07,2013-06-08 16:40:00,
2013-06-08 09:43:00,69.8,38.6,29.90,South,182,0.0,6.0,32,0.00,,---,0.00,VWS V12.07,2013-06-08 16:43:00,
2013-06-08 09:44:00,69.8,39.4,29.90,South,184,1.0,6.0,33,0.00,,---,0.00,VWS V12.07,2013-06-08 16:44:00,
2013-06-08 09:45:00,69.8,37.0,29.90,South,184,3.0,6.0,30,0.00,,---,0.00,VWS V12.07,2013-06-08 16:45:00,
2013-06-08 09:49:00,70.1,35.5,29.90,SSW,200,2.0,6.0,28,0.00,,---,0.00,VWS V12.07,2013-06-08 16:49:00,
2013-06-08 09:50:00,70.1,36.4,29.90,SSW,193,0.0,6.0,29,0.00,,---,0.00,VWS V12.07,2013-06-08 16:50:00,
2013-06-08 09:51:00,70.3,36.6,29.90,SSW,193,0.0,6.0,29,0.00,,---,0.00,VWS V12.07,2013-06-08 16:51:00,
2013-06-08 09:54:00,71.1,37.3,29.90,SSW,193,0.0,6.0,29,0.00,,---,0.00,VWS V12.07,2013-06-08 16:54:00,
2013-06-08 09:55:00,71.5,34.8,29.90,SSW,193,0.0,6.0,26,0.00,,---,0.00,VWS V12.07,2013-06-08 16:55:00,
2013-06-08 09:57:00,72.3,36.5,29.90,SSW,193,0.0,6.0,27,0.00,,---,0.00,VWS V12.07,2013-06-08 16:57:00,
2013-06-08 09:59:00,72.8,35.0,29.88,West,270,0.0,6.0,25,0.00,,---,0.00,VWS V12.07,2013-06-08 16:59:00,
2013-06-08 10:00:00,73.0,36.1,29.88,West,270,2.0,5.0,26,0.00,,---,0.00,VWS V12.07,2013-06-08 17:00:00,
2013-06-08 10:01:00,73.3,36.4,29.88,West,270,0.0,6.0,26,0.00,,---,0.00,VWS V12.07,2013-06-08 17:01:00,
2013-06-08 10:04:00,73.0,38.0,29.88,SSW,206,0.0,6.0,28,0.00,,---,0.00,VWS V12.07,2013-06-08 17:04:00,
2013-06-08 10:05:00,73.3,38.3,29.88,SSW,206,0.0,6.0,28,0.00,,---,0.00,VWS V12.07,2013-06-08 17:05:00,
2013-06-08 10:07:00,73.9,35.9,29.88,SSW,206,0.0,6.0,25,0.00,,---,0.00,VWS V12.07,2013-06-08 17:07:00,
2013-06-08 10:08:00,74.2,34.1,29.88,SSW,208,2.0,6.0,23,0.00,,---,0.00,VWS V12.07,2013-06-08 17:08:00,
2013-06-08 10:10:00,74.9,34.6,29.88,SSW,208,0.0,6.0,23,0.00,,---,0.00,VWS V12.07,2013-06-08 17:10:00,
2013-06-08 10:12:00,75.3,31.5,29.88,SSW,212,0.0,6.0,20,0.00,,---,0.00,VWS V12.07,2013-06-08 17:12:00,
2013-06-08 10:13:00,75.6,31.7,29.88,SSW,212,0.0,6.0,20,0.00,,---,0.00,VWS V12.07,2013-06-08 17:13:00,
2013-06-08 10:14:00,76.0,32.1,29.88,SSW,212,0.0,6.0,20,0.00,,---,0.00,VWS V12.07,2013-06-08 17:14:00,
2013-06-08 10:15:00,76.1,29.6,29.88,SSW,212,2.0,6.0,18,0.00,,---,0.00,VWS V12.07,2013-06-08 17:15:00,
2013-06-08 10:18:00,76.7,30.0,29.88,SSW,212,1.0,6.0,18,0.00,,---,0.00,VWS V12.07,2013-06-08 17:18:00,
2013-06-08 10:20:00,77.0,30.3,29.88,SSW,212,0.0,6.0,18,0.00,,---,0.00,VWS V12.07,2013-06-08 17:20:00,
2013-06-08 10:22:00,77.2,29.0,29.88,SSW,212,0.0,6.0,17,0.00,,---,0.00,VWS V12.07,2013-06-08 17:22:00,
2013-06-08 10:23:00,77.2,29.0,29.88,SW,217,2.0,6.0,17,0.00,,---,0.00,VWS V12.07,2013-06-08 17:23:00,
2013-06-08 10:25:00,77.4,30.6,29.88,WNW,298,0.0,6.0,18,0.00,,---,0.00,VWS V12.07,2013-06-08 17:25:00,
2013-06-08 10:27:00,77.6,30.8,29.88,NW,304,1.0,6.0,18,0.00,,---,0.00,VWS V12.07,2013-06-08 17:27:00,
2013-06-08 10:29:00,77.6,30.8,29.88,NNE,13,0.0,6.0,18,0.00,,---,0.00,VWS V12.07,2013-06-08 17:29:00,
2013-06-08 10:30:00,77.6,30.8,29.88,NNE,13,0.0,3.0,18,0.00,,---,0.00,VWS V12.07,2013-06-08 17:30:00,
2013-06-08 10:31:00,78.6,28.7,29.88,North,11,0.0,6.0,16,0.00,,---,0.00,VWS V12.07,2013-06-08 17:31:00,
2013-06-08 10:32:00,78.8,27.3,29.88,North,8,0.0,6.0,15,0.00,,---,0.00,VWS V12.07,2013-06-08 17:32:00,
2013-06-08 10:33:00,79.0,29.0,29.88,North,8,0.0,6.0,16,0.00,,---,0.00,VWS V12.07,2013-06-08 17:33:00,
2013-06-08 10:34:00,79.4,30.8,29.88,North,8,0.0,6.0,17,0.00,,---,0.00,VWS V12.07,2013-06-08 17:34:00,
2013-06-08 10:37:00,79.4,30.8,29.88,ESE,109,2.0,6.0,17,0.00,,---,0.00,VWS V12.07,2013-06-08 17:37:00,
2013-06-08 10:38:00,78.6,28.7,29.88,ESE,114,0.0,6.0,16,0.00,,---,0.00,VWS V12.07,2013-06-08 17:38:00,
2013-06-08 10:39:00,77.9,28.1,29.88,ESE,117,0.0,6.0,16,0.00,,---,0.00,VWS V12.07,2013-06-08 17:39:00,
2013-06-08 10:40:00,77.2,27.6,29.88,SE,136,2.0,6.0,16,0.00,,---,0.00,VWS V12.07,2013-06-08 17:40:00,
2013-06-08 10:43:00,77.2,27.6,29.88,SE,136,1.0,6.0,16,0.00,,---,0.00,VWS V12.07,2013-06-08 17:43:00,
2013-06-08 10:44:00,77.2,27.6,29.88,SSE,164,2.0,6.0,16,0.00,,---,0.00,VWS V12.07,2013-06-08 17:44:00,
2013-06-08 10:46:00,76.0,26.6,29.88,SSE,164,0.0,6.0,16,0.00,,---,0.00,VWS V12.07,2013-06-08 17:46:00,
2013-06-08 10:47:00,76.0,30.8,29.88,NW,315,1.0,6.0,19,0.00,,---,0.00,VWS V12.07,2013-06-08 17:47:00,
2013-06-08 10:49:00,76.3,26.9,29.88,NNW,335,1.0,6.0,16,0.00,,---,0.00,VWS V12.07,2013-06-08 17:49:00,
2013-06-08 10:50:00,76.3,26.9,29.88,NNW,335,1.0,6.0,16,0.00,,---,0.00,VWS V12.07,2013-06-08 17:50:00,
2013-06-08 10:51:00,76.8,27.2,29.88,NNW,335,2.0,6.0,16,0.00,,---,0.00,VWS V12.07,2013-06-08 17:51:00,
2013-06-08 10:54:00,76.5,27.0,29.88,NW,326,0.0,6.0,16,0.00,,---,0.00,VWS V12.07,2013-06-08 17:54:00,
2013-06-08 10:55:00,76.5,28.5,29.88,NW,326,2.0,6.0,17,0.00,,---,0.00,VWS V12.07,2013-06-08 17:55:00,
2013-06-08 10:56:00,76.5,28.5,29.88,NW,326,0.0,6.0,17,0.00,,---,0.00,VWS V12.07,2013-06-08 17:56:00,
2013-06-08 11:00:00,76.7,28.6,29.88,NW,323,2.0,6.0,17,0.00,,---,0.00,VWS V12.07,2013-06-08 18:00:00,
2013-06-08 11:01:00,76.7,28.6,29.88,NW,323,2.0,6.0,17,0.00,,---,0.00,VWS V12.07,2013-06-08 18:01:00,
2013-06-08 11:02:00,76.7,28.6,29.88,NW,323,2.0,6.0,17,0.00,,---,0.00,VWS V12.07,2013-06-08 18:02:00,
2013-06-08 11:05:00,78.3,26.9,29.88,NW,316,5.0,6.0,15,0.00,,---,0.00,VWS V12.07,2013-06-08 18:05:00,
2013-06-08 11:06:00,78.3,23.5,29.88,NW,315,0.0,6.0,13,0.00,,---,0.00,VWS V12.07,2013-06-08 18:06:00,
2013-06-08 11:07:00,78.3,23.5,29.88,NW,315,0.0,6.0,13,0.00,,---,0.00,VWS V12.07,2013-06-08 18:07:00,
2013-06-08 11:08:00,78.3,23.5,29.88,NW,315,0.0,6.0,13,0.00,,---,0.00,VWS V12.07,2013-06-08 18:08:00,
2013-06-08 11:10:00,79.4,26.1,29.88,NW,315,0.0,6.0,14,0.00,,---,0.00,VWS V12.07,2013-06-08 18:10:00,
2013-06-08 11:11:00,79.8,28.1,29.88,NW,315,0.0,6.0,15,0.00,,---,0.00,VWS V12.07,2013-06-08 18:11:00,
2013-06-08 11:12:00,79.8,28.1,29.88,NW,315,0.0,6.0,15,0.00,,---,0.00,VWS V12.07,2013-06-08 18:12:00,
2013-06-08 11:13:00,79.6,27.9,29.88,NW,311,0.0,6.0,15,0.00,,---,0.00,VWS V12.07,2013-06-08 18:13:00,
2013-06-08 11:15:00,79.2,24.2,29.89,NW,311,2.0,6.0,13,0.00,,---,0.00,VWS V12.07,2013-06-08 18:15:00,
2013-06-08 11:16:00,79.4,24.3,29.89,NW,311,0.0,6.0,13,0.00,,---,0.00,VWS V12.07,2013-06-08 18:16:00,
2013-06-08 11:17:00,79.6,24.5,29.89,NW,318,2.0,6.0,13,0.00,,---,0.00,VWS V12.07,2013-06-08 18:17:00,
2013-06-08 11:18:00,79.6,24.5,29.89,NW,318,0.0,6.0,13,0.00,,---,0.00,VWS V12.07,2013-06-08 18:18:00,
2013-06-08 11:20:00,79.9,24.7,29.89,NW,318,0.0,6.0,13,0.00,,---,0.00,VWS V12.07,2013-06-08 18:20:00,
2013-06-08 11:21:00,80.7,25.3,29.89,NW,318,0.0,6.0,13,0.00,,---,0.00,VWS V12.07,2013-06-08 18:21:00,
2013-06-08 11:22:00,81.1,25.6,29.89,NW,320,2.0,6.0,13,0.00,,---,0.00,VWS V12.07,2013-06-08 18:22:00,
2013-06-08 11:24:00,81.4,25.9,29.89,NW,326,0.0,6.0,13,0.00,,---,0.00,VWS V12.07,2013-06-08 18:24:00,
2013-06-08 11:25:00,81.6,26.0,29.89,NW,326,0.0,6.0,13,0.00,,---,0.00,VWS V12.07,2013-06-08 18:25:00,
2013-06-08 11:26:00,82.0,24.4,29.89,NW,326,0.0,6.0,12,0.00,,---,0.00,VWS V12.07,2013-06-08 18:26:00,
2013-06-08 11:29:00,82.0,24.4,29.88,NW,326,0.0,6.0,12,0.00,,---,0.00,VWS V12.07,2013-06-08 18:29:00,
2013-06-08 11:30:00,82.0,24.4,29.88,NW,326,0.0,3.0,12,0.00,,---,0.00,VWS V12.07,2013-06-08 18:30:00,
2013-06-08 11:31:00,82.8,25.0,29.88,NNW,332,2.0,6.0,12,0.00,,---,0.00,VWS V12.07,2013-06-08 18:31:00,
2013-06-08 11:32:00,82.8,25.0,29.88,NNW,332,2.0,6.0,12,0.00,,---,0.00,VWS V12.07,2013-06-08 18:32:00,
2013-06-08 11:33:00,82.8,25.0,29.88,NNW,332,2.0,6.0,12,0.00,,---,0.00,VWS V12.07,2013-06-08 18:33:00,
2013-06-08 11:35:00,82.8,25.0,29.88,East,85,0.0,6.0,12,0.00,,---,0.00,VWS V12.07,2013-06-08 18:35:00,
2013-06-08 11:36:00,82.8,25.0,29.88,East,85,0.0,6.0,12,0.00,,---,0.00,VWS V12.07,2013-06-08 18:36:00,
2013-06-08 11:38:00,82.8,28.8,29.88,East,80,0.0,6.0,14,0.00,,---,0.00,VWS V12.07,2013-06-08 18:38:00,
2013-06-08 11:40:00,82.8,28.8,29.88,NNW,339,2.0,2.0,14,0.00,,---,0.00,VWS V12.07,2013-06-08 18:40:00,
2013-06-08 11:41:00,83.4,29.3,29.88,NNW,344,0.0,6.0,14,0.00,,---,0.00,VWS V12.07,2013-06-08 18:41:00,
2013-06-08 11:43:00,83.4,27.5,29.88,NNW,346,0.0,6.0,13,0.00,,---,0.00,VWS V12.07,2013-06-08 18:43:00,
2013-06-08 11:44:00,83.4,27.5,29.88,NNW,342,3.0,6.0,13,0.00,,---,0.00,VWS V12.07,2013-06-08 18:44:00,
2013-06-08 11:46:00,83.4,27.5,29.87,North,0,0.0,6.0,13,0.00,,---,0.00,VWS V12.07,2013-06-08 18:46:00,
2013-06-08 11:47:00,83.4,27.5,29.87,North,0,0.0,6.0,13,0.00,,---,0.00,VWS V12.07,2013-06-08 18:47:00,
2013-06-08 11:48:00,83.4,27.5,29.87,North,359,0.0,6.0,13,0.00,,---,0.00,VWS V12.07,2013-06-08 18:48:00,
2013-06-08 11:49:00,83.2,33.9,29.87,WNW,299,2.0,6.0,17,0.00,,---,0.00,VWS V12.07,2013-06-08 18:49:00,
2013-06-08 11:50:00,83.2,33.9,29.87,WNW,299,0.0,3.0,17,0.00,,---,0.00,VWS V12.07,2013-06-08 18:50:00,
2013-06-08 11:52:00,82.6,36.2,29.87,WNW,288,0.0,6.0,19,0.00,,---,0.00,VWS V12.07,2013-06-08 18:52:00,
2013-06-08 11:53:00,81.8,35.5,29.87,South,182,1.0,6.0,19,0.00,,---,0.00,VWS V12.07,2013-06-08 18:53:00,
2013-06-08 11:54:00,80.9,34.8,29.87,South,171,3.0,6.0,19,0.00,,---,0.00,VWS V12.07,2013-06-08 18:54:00,
2013-06-08 11:55:00,80.9,34.8,29.87,South,171,3.0,6.0,19,0.00,,---,0.00,VWS V12.07,2013-06-08 18:55:00,
2013-06-08 11:57:00,80.9,34.8,29.87,SSE,158,0.0,6.0,19,0.00,,---,0.00,VWS V12.07,2013-06-08 18:57:00,
2013-06-08 11:58:00,80.9,34.8,29.87,SSE,154,1.0,6.0,19,0.00,,---,0.00,VWS V12.07,2013-06-08 18:58:00,
2013-06-08 11:59:00,81.4,35.2,29.88,NW,318,0.0,6.0,19,0.00,,---,0.00,VWS V12.07,2013-06-08 18:59:00,
2013-06-08 12:00:00,81.6,35.4,29.88,NW,318,0.0,6.0,19,0.00,,---,0.00,VWS V12.07,2013-06-08 19:00:00,
2013-06-08 12:02:00,83.2,35.3,29.88,North,353,1.0,6.0,18,0.00,,---,0.00,VWS V12.07,2013-06-08 19:02:00,
2013-06-08 12:04:00,83.2,32.4,29.88,NNW,343,0.0,6.0,16,0.00,,---,0.00,VWS V12.07,2013-06-08 19:04:00,
2013-06-08 12:05:00,83.2,32.4,29.88,NNW,343,0.0,6.0,16,0.00,,---,0.00,VWS V12.07,2013-06-08 19:05:00,
2013-06-08 12:07:00,83.6,32.7,29.88,WNW,299,2.0,6.0,16,0.00,,---,0.00,VWS V12.07,2013-06-08 19:07:00,
2013-06-08 12:09:00,84.0,33.0,29.88,WNW,301,0.0,6.0,16,0.00,,---,0.00,VWS V12.07,2013-06-08 19:09:00,
2013-06-08 12:10:00,84.7,33.6,29.88,North,359,5.0,6.0,16,0.00,,---,0.00,VWS V12.07,2013-06-08 19:10:00,
2013-06-08 12:13:00,85.5,34.2,29.88,NW,323,1.0,6.0,16,0.00,,---,0.00,VWS V12.07,2013-06-08 19:13:00,
2013-06-08 12:15:00,85.9,36.1,29.86,North,10,0.0,6.0,17,0.00,,---,0.00,VWS V12.07,2013-06-08 19:15:00,
2013-06-08 12:16:00,86.1,36.2,29.86,North,10,0.0,6.0,17,0.00,,---,0.00,VWS V12.07,2013-06-08 19:16:00,
2013-06-08 12:18:00,86.1,34.7,29.86,North,10,1.0,6.0,16,0.00,,---,0.00,VWS V12.07,2013-06-08 19:18:00,
2013-06-08 12:20:00,85.9,34.5,29.86,NNW,328,5.0,7.0,16,0.00,,---,0.00,VWS V12.07,2013-06-08 19:20:00,
2013-06-08 12:21:00,86.1,36.2,29.86,NNW,328,1.0,7.0,17,0.00,,---,0.00,VWS V12.07,2013-06-08 19:21:00,
2013-06-08 12:22:00,86.1,36.2,29.86,NW,326,3.0,7.0,17,0.00,,---,0.00,VWS V12.07,2013-06-08 19:22:00,
2013-06-08 12:23:00,86.1,36.2,29.86,North,10,2.0,7.0,17,0.00,,---,0.00,VWS V12.07,2013-06-08 19:23:00,
2013-06-08 12:26:00,85.3,35.6,29.86,NW,311,3.0,7.0,17,0.00,,---,0.00,VWS V12.07,2013-06-08 19:26:00,
2013-06-08 12:27:00,85.3,35.6,29.86,NW,323,0.0,7.0,17,0.00,,---,0.00,VWS V12.07,2013-06-08 19:27:00,
2013-06-08 12:28:00,85.3,35.6,29.86,NW,323,0.0,7.0,17,0.00,,---,0.00,VWS V12.07,2013-06-08 19:28:00,
2013-06-08 12:29:00,85.3,35.6,29.86,NW,323,0.0,7.0,17,0.00,,---,0.00,VWS V12.07,2013-06-08 19:29:00,
2013-06-08 12:30:00,85.3,35.6,29.86,NW,323,0.0,6.0,17,0.00,,---,0.00,VWS V12.07,2013-06-08 19:30:00,
2013-06-08 12:32:00,85.3,35.6,29.86,SE,133,7.0,8.0,17,0.00,,---,0.00,VWS V12.07,2013-06-08 19:32:00,
2013-06-08 12:33:00,80.9,32.0,29.86,SE,128,5.0,8.0,17,0.00,,---,0.00,VWS V12.07,2013-06-08 19:33:00,
2013-06-08 12:35:00,80.9,32.0,29.86,ESE,107,0.0,8.0,17,0.00,,---,0.00,VWS V12.07,2013-06-08 19:35:00,
2013-06-08 12:36:00,80.9,32.0,29.86,ESE,107,0.0,8.0,17,0.00,,---,0.00,VWS V12.07,2013-06-08 19:36:00,
2013-06-08 12:37:00,80.9,32.0,29.86,ESE,107,0.0,8.0,17,0.00,,---,0.00,VWS V12.07,2013-06-08 19:37:00,
2013-06-08 12:38:00,82.2,33.1,29.86,East,97,0.0,8.0,17,0.00,,---,0.00,VWS V12.07,2013-06-08 19:38:00,
2013-06-08 12:39:00,82.4,34.7,29.86,WNW,302,5.0,10.0,18,0.00,,---,0.00,VWS V12.07,2013-06-08 19:39:00,
2013-06-08 12:40:00,82.4,34.7,29.86,WNW,301,2.0,10.0,18,0.00,,---,0.00,VWS V12.07,2013-06-08 19:40:00,
2013-06-08 12:41:00,82.4,34.7,29.86,NW,306,0.0,10.0,18,0.00,,---,0.00,VWS V12.07,2013-06-08 19:41:00,
2013-06-08 12:42:00,83.0,35.2,29.86,NW,309,1.0,10.0,18,0.00,,---,0.00,VWS V12.07,2013-06-08 19:42:00,
2013-06-08 12:43:00,83.0,35.2,29.86,NNW,342,2.0,10.0,18,0.00,,---,0.00,VWS V12.07,2013-06-08 19:43:00,
2013-06-08 12:44:00,84.0,36.0,29.86,NW,319,3.0,10.0,18,0.00,,---,0.00,VWS V12.07,2013-06-08 19:44:00,
2013-06-08 12:46:00,84.1,36.1,29.86,NW,320,0.0,10.0,18,0.00,,---,0.00,VWS V12.07,2013-06-08 19:46:00,
2013-06-08 12:48:00,84.1,36.1,29.86,North,359,1.0,10.0,18,0.00,,---,0.00,VWS V12.07,2013-06-08 19:48:00,
2013-06-08 12:50:00,85.3,37.0,29.86,North,7,0.0,10.0,18,0.00,,---,0.00,VWS V12.07,2013-06-08 19:50:00,
2013-06-08 12:51:00,85.3,37.0,29.86,NW,313,2.0,10.0,18,0.00,,---,0.00,VWS V12.07,2013-06-08 19:51:00,
2013-06-08 12:53:00,85.3,35.6,29.86,NNE,17,0.0,10.0,17,0.00,,---,0.00,VWS V12.07,2013-06-08 19:53:00,
2013-06-08 12:54:00,85.3,35.6,29.86,NNE,17,1.0,10.0,17,0.00,,---,0.00,VWS V12.07,2013-06-08 19:54:00,
2013-06-08 12:55:00,85.7,35.9,29.86,NNE,13,4.0,10.0,17,0.00,,---,0.00,VWS V12.07,2013-06-08 19:55:00,
2013-06-08 12:57:00,85.9,36.1,29.86,NNE,16,1.0,10.0,17,0.00,,---,0.00,VWS V12.07,2013-06-08 19:57:00,
2013-06-08 12:58:00,85.9,37.5,29.86,NNE,16,0.0,10.0,18,0.00,,---,0.00,VWS V12.07,2013-06-08 19:58:00,
2013-06-08 12:59:00,86.1,37.7,29.85,NNE,14,0.0,10.0,18,0.00,,---,0.00,VWS V12.07,2013-06-08 19:59:00,
2013-06-08 13:00:00,86.3,37.8,29.85,NNE,14,0.0,10.0,18,0.00,,---,0.00,VWS V12.07,2013-06-08 20:00:00,
2013-06-08 13:03:00,86.7,38.2,29.85,NW,316,0.0,10.0,18,0.00,,---,0.00,VWS V12.07,2013-06-08 20:03:00,
2013-06-08 13:04:00,86.7,38.2,29.85,NNW,339,1.0,10.0,18,0.00,,---,0.00,VWS V12.07,2013-06-08 20:04:00,
2013-06-08 13:05:00,86.7,36.7,29.85,NNW,340,1.0,10.0,17,0.00,,---,0.00,VWS V12.07,2013-06-08 20:05:00,
2013-06-08 13:08:00,87.0,37.0,29.85,NNW,340,0.0,10.0,17,0.00,,---,0.00,VWS V12.07,2013-06-08 20:08:00,
2013-06-08 13:09:00,87.0,37.0,29.85,NNW,340,0.0,10.0,17,0.00,,---,0.00,VWS V12.07,2013-06-08 20:09:00,
2013-06-08 13:10:00,87.0,37.0,29.85,North,350,2.0,10.0,17,0.00,,---,0.00,VWS V12.07,2013-06-08 20:10:00,
2013-06-08 13:11:00,87.0,35.4,29.85,NW,326,1.0,10.0,16,0.00,,---,0.00,VWS V12.07,2013-06-08 20:11:00,
2013-06-08 13:13:00,87.6,35.9,29.85,North,356,1.0,10.0,16,0.00,,---,0.00,VWS V12.07,2013-06-08 20:13:00,
2013-06-08 13:14:00,87.6,35.9,29.85,North,359,2.0,10.0,16,0.00,,---,0.00,VWS V12.07,2013-06-08 20:14:00,
2013-06-08 13:15:00,87.6,35.9,29.85,North,359,2.0,10.0,16,0.00,,---,0.00,VWS V12.07,2013-06-08 20:15:00,
2013-06-08 13:16:00,87.4,35.8,29.85,North,356,0.0,10.0,16,0.00,,---,0.00,VWS V12.07,2013-06-08 20:16:00,
2013-06-08 13:20:00,88.0,36.2,29.85,North,359,1.0,10.0,16,0.00,,---,0.00,VWS V12.07,2013-06-08 20:20:00,
2013-06-08 13:21:00,88.2,37.9,29.85,North,359,0.0,10.0,17,0.00,,---,0.00,VWS V12.07,2013-06-08 20:21:00,
2013-06-08 13:22:00,88.2,37.9,29.85,North,359,1.0,10.0,17,0.00,,---,0.00,VWS V12.07,2013-06-08 20:22:00,
2013-06-08 13:25:00,88.8,36.9,29.85,NNW,336,0.0,10.0,16,0.00,,---,0.00,VWS V12.07,2013-06-08 20:25:00,
2013-06-08 13:26:00,88.8,36.9,29.85,NNW,337,0.0,10.0,16,0.00,,---,0.00,VWS V12.07,2013-06-08 20:26:00,
2013-06-08 13:27:00,88.6,36.7,29.85,North,354,0.0,10.0,16,0.00,,---,0.00,VWS V12.07,2013-06-08 20:27:00,
2013-06-08 13:29:00,88.8,36.9,29.85,NW,323,0.0,10.0,16,0.00,,---,0.00,VWS V12.07,2013-06-08 20:29:00,
2013-06-08 13:30:00,88.6,36.7,29.85,WNW,301,2.0,10.0,16,0.00,,---,0.00,VWS V12.07,2013-06-08 20:30:00,
2013-06-08 13:31:00,88.6,35.1,29.85,North,0,2.0,10.0,15,0.00,,---,0.00,VWS V12.07,2013-06-08 20:31:00,
2013-06-08 13:34:00,88.0,34.6,29.85,North,3,1.0,10.0,15,0.00,,---,0.00,VWS V12.07,2013-06-08 20:34:00,
2013-06-08 13:35:00,88.0,34.6,29.85,North,7,2.0,10.0,15,0.00,,---,0.00,VWS V12.07,2013-06-08 20:35:00,
2013-06-08 13:36:00,88.2,34.8,29.85,North,7,0.0,10.0,15,0.00,,---,0.00,VWS V12.07,2013-06-08 20:36:00,
2013-06-08 13:40:00,88.2,34.8,29.85,NNW,337,0.0,10.0,15,0.00,,---,0.00,VWS V12.07,2013-06-08 20:40:00,
2013-06-08 13:41:00,88.2,34.8,29.85,North,0,0.0,10.0,15,0.00,,---,0.00,VWS V12.07,2013-06-08 20:41:00,
2013-06-08 13:42:00,88.0,34.6,29.85,North,1,0.0,10.0,15,0.00,,---,0.00,VWS V12.07,2013-06-08 20:42:00,
2013-06-08 13:45:00,87.6,34.3,29.85,WNW,288,0.0,10.0,15,0.00,,---,0.00,VWS V12.07,2013-06-08 20:45:00,
2013-06-08 13:46:00,87.6,37.5,29.85,WNW,288,0.0,10.0,17,0.00,,---,0.00,VWS V12.07,2013-06-08 20:46:00,
2013-06-08 13:47:00,87.4,37.3,29.85,WNW,288,2.0,10.0,17,0.00,,---,0.00,VWS V12.07,2013-06-08 20:47:00,
2013-06-08 13:48:00,87.4,37.3,29.85,WNW,291,1.0,10.0,17,0.00,,---,0.00,VWS V12.07,2013-06-08 20:48:00,
2013-06-08 13:50:00,87.4,37.3,29.85,NW,311,3.0,7.0,17,0.00,,---,0.00,VWS V12.07,2013-06-08 20:50:00,
2013-06-08 13:51:00,87.0,37.0,29.85,NW,311,0.0,10.0,17,0.00,,---,0.00,VWS V12.07,2013-06-08 20:51:00,
2013-06-08 13:52:00,86.5,36.6,29.85,NNW,329,0.0,10.0,17,0.00,,---,0.00,VWS V12.07,2013-06-08 20:52:00,
2013-06-08 13:53:00,85.7,34.4,29.85,SE,133,4.0,10.0,16,0.00,,---,0.00,VWS V12.07,2013-06-08 20:53:00,
2013-06-08 13:55:00,84.7,33.6,29.85,SE,134,0.0,10.0,16,0.00,,---,0.00,VWS V12.07,2013-06-08 20:55:00,
2013-06-08 13:57:00,84.9,33.8,29.85,ENE,65,0.0,10.0,16,0.00,,---,0.00,VWS V12.07,2013-06-08 20:57:00,
2013-06-08 13:58:00,85.5,32.6,29.85,North,353,0.0,10.0,15,0.00,,---,0.00,VWS V12.07,2013-06-08 20:58:00,
2013-06-08 13:59:00,85.7,34.4,29.85,North,353,0.0,10.0,16,0.00,,---,0.00,VWS V12.07,2013-06-08 20:59:00,
2013-06-08 14:00:00,86.3,34.9,29.85,North,354,0.0,10.0,16,0.00,,---,0.00,VWS V12.07,2013-06-08 21:00:00,
2013-06-08 14:03:00,87.0,33.8,29.85,NNW,347,0.0,10.0,15,0.00,,---,0.00,VWS V12.07,2013-06-08 21:03:00,
2013-06-08 14:05:00,87.0,33.8,29.85,NNW,346,0.0,10.0,15,0.00,,---,0.00,VWS V12.07,2013-06-08 21:05:00,
2013-06-08 14:08:00,88.0,34.6,29.85,NNE,16,2.0,10.0,15,0.00,,---,0.00,VWS V12.07,2013-06-08 21:08:00,
2013-06-08 14:10:00,88.6,36.7,29.85,NNE,17,1.0,10.0,16,0.00,,---,0.00,VWS V12.07,2013-06-08 21:10:00,
2013-06-08 14:11:00,88.8,36.9,29.85,North,11,2.0,10.0,16,0.00,,---,0.00,VWS V12.07,2013-06-08 21:11:00,
2013-06-08 14:12:00,89.0,33.7,29.85,North,11,1.0,10.0,14,0.00,,---,0.00,VWS V12.07,2013-06-08 21:12:00,
2013-06-08 14:13:00,88.8,35.2,29.85,NW,320,3.0,10.0,15,0.00,,---,0.00,VWS V12.07,2013-06-08 21:13:00,
2013-06-08 14:14:00,88.4,34.9,29.85,NW,322,1.0,10.0,15,0.00,,---,0.00,VWS V12.07,2013-06-08 21:14:00,
2013-06-08 14:16:00,88.0,34.6,29.85,NW,323,0.0,10.0,15,0.00,,---,0.00,VWS V12.07,2013-06-08 21:16:00,
2013-06-08 14:17:00,87.8,36.1,29.85,NW,322,0.0,10.0,16,0.00,,---,0.00,VWS V12.07,2013-06-08 21:17:00,
2013-06-08 14:19:00,87.2,35.6,29.85,NNE,14,2.0,10.0,16,0.00,,---,0.00,VWS V12.07,2013-06-08 21:19:00,
2013-06-08 14:20:00,87.0,35.4,29.85,NNE,32,0.0,10.0,16,0.00,,---,0.00,VWS V12.07,2013-06-08 21:20:00,
2013-06-08 14:22:00,86.7,35.2,29.85,NNW,346,3.0,10.0,16,0.00,,---,0.00,VWS V12.07,2013-06-08 21:22:00,
2013-06-08 14:23:00,86.7,33.6,29.85,North,349,0.0,10.0,15,0.00,,---,0.00,VWS V12.07,2013-06-08 21:23:00,
2013-06-08 14:25:00,86.1,33.1,29.85,North,349,0.0,10.0,15,0.00,,---,0.00,VWS V12.07,2013-06-08 21:25:00,
2013-06-08 14:26:00,86.1,33.1,29.85,North,350,2.0,10.0,15,0.00,,---,0.00,VWS V12.07,2013-06-08 21:26:00,
2013-06-08 14:27:00,86.1,33.1,29.85,South,179,0.0,10.0,15,0.00,,---,0.00,VWS V12.07,2013-06-08 21:27:00,
2013-06-08 14:28:00,85.9,32.9,29.85,NNE,18,0.0,10.0,15,0.00,,---,0.00,VWS V12.07,2013-06-08 21:28:00,
2013-06-08 14:29:00,86.3,36.4,29.85,North,0,3.0,10.0,17,0.00,,---,0.00,VWS V12.07,2013-06-08 21:29:00,
2013-06-08 14:30:00,87.0,35.4,29.85,NE,41,0.0,10.0,16,0.00,,---,0.00,VWS V12.07,2013-06-08 21:30:00,
2013-06-08 14:31:00,87.0,35.4,29.85,NE,41,0.0,10.0,16,0.00,,---,0.00,VWS V12.07,2013-06-08 21:31:00,
2013-06-08 14:32:00,87.2,34.0,29.85,NE,38,0.0,10.0,15,0.00,,---,0.00,VWS V12.07,2013-06-08 21:32:00,
2013-06-08 14:34:00,87.0,33.8,29.85,NE,42,0.0,10.0,15,0.00,,---,0.00,VWS V12.07,2013-06-08 21:34:00,
2013-06-08 14:36:00,86.5,35.0,29.85,ESE,114,0.0,10.0,16,0.00,,---,0.00,VWS V12.07,2013-06-08 21:36:00,
2013-06-08 14:37:00,86.5,33.4,29.85,NNE,28,3.0,10.0,15,0.00,,---,0.00,VWS V12.07,2013-06-08 21:37:00,
2013-06-08 14:38:00,86.5,36.6,29.85,NE,47,0.0,10.0,17,0.00,,---,0.00,VWS V12.07,2013-06-08 21:38:00,
2013-06-08 14:39:00,86.5,35.0,29.85,NE,40,0.0,10.0,16,0.00,,---,0.00,VWS V12.07,2013-06-08 21:39:00,
2013-06-08 14:40:00,86.3,34.9,29.85,NE,38,0.0,10.0,16,0.00,,---,0.00,VWS V12.07,2013-06-08 21:40:00,
2013-06-08 14:41:00,86.3,34.9,29.85,NE,38,0.0,10.0,16,0.00,,---,0.00,VWS V12.07,2013-06-08 21:41:00,
2013-06-08 14:42:00,86.3,34.9,29.85,ESE,119,0.0,10.0,16,0.00,,---,0.00,VWS V12.07,2013-06-08 21:42:00,
2013-06-08 14:44:00,86.3,36.4,29.85,SW,216,1.0,10.0,17,0.00,,---,0.00,VWS V12.07,2013-06-08 21:44:00,
2013-06-08 14:45:00,86.1,36.2,29.85,SSE,161,0.0,10.0,17,0.00,,---,0.00,VWS V12.07,2013-06-08 21:45:00,
2013-06-08 14:47:00,86.1,34.7,29.85,SSE,161,0.0,10.0,16,0.00,,---,0.00,VWS V12.07,2013-06-08 21:47:00,
2013-06-08 14:49:00,86.3,36.4,29.85,SSE,160,2.0,10.0,17,0.00,,---,0.00,VWS V12.07,2013-06-08 21:49:00,
2013-06-08 14:50:00,86.5,36.6,29.85,SSE,160,0.0,10.0,17,0.00,,---,0.00,VWS V12.07,2013-06-08 21:50:00,
2013-06-08 14:52:00,87.0,37.0,29.85,North,359,0.0,10.0,17,0.00,,---,0.00,VWS V12.07,2013-06-08 21:52:00,
2013-06-08 14:53:00,87.0,35.4,29.85,North,359,0.0,10.0,16,0.00,,---,0.00,VWS V12.07,2013-06-08 21:53:00,
2013-06-08 14:54:00,87.0,37.0,29.85,North,359,0.0,10.0,17,0.00,,---,0.00,VWS V12.07,2013-06-08 21:54:00,
2013-06-08 14:55:00,87.0,37.0,29.85,North,359,0.0,10.0,17,0.00,,---,0.00,VWS V12.07,2013-06-08 21:55:00,
2013-06-08 14:57:00,87.0,37.0,29.85,North,0,0.0,10.0,17,0.00,,---,0.00,VWS V12.07,2013-06-08 21:57:00,
2013-06-08 14:58:00,86.7,36.7,29.85,NW,318,0.0,10.0,17,0.00,,---,0.00,VWS V12.07,2013-06-08 21:58:00,
2013-06-08 15:00:00,86.5,36.6,29.84,North,354,0.0,10.0,17,0.00,,---,0.00,VWS V12.07,2013-06-08 22:00:00,
2013-06-08 15:03:00,86.3,36.4,29.84,North,4,0.0,10.0,17,0.00,,---,0.00,VWS V12.07,2013-06-08 22:03:00,
2013-06-08 15:04:00,86.3,36.4,29.84,North,7,1.0,10.0,17,0.00,,---,0.00,VWS V12.07,2013-06-08 22:04:00,
2013-06-08 15:06:00,86.1,34.7,29.84,North,354,2.0,10.0,16,0.00,,---,0.00,VWS V12.07,2013-06-08 22:06:00,
2013-06-08 15:08:00,85.9,34.5,29.84,North,356,1.0,10.0,16,0.00,,---,0.00,VWS V12.07,2013-06-08 22:08:00,
2013-06-08 15:09:00,85.9,34.5,29.84,North,356,1.0,10.0,16,0.00,,---,0.00,VWS V12.07,2013-06-08 22:09:00,
2013-06-08 15:10:00,85.9,34.5,29.84,SE,144,0.0,5.0,16,0.00,,---,0.00,VWS V12.07,2013-06-08 22:10:00,
2013-06-08 15:11:00,85.9,34.5,29.84,SE,144,0.0,10.0,16,0.00,,---,0.00,VWS V12.07,2013-06-08 22:11:00,
2013-06-08 15:14:00,84.5,33.4,29.84,SE,131,1.0,10.0,16,0.00,,---,0.00,VWS V12.07,2013-06-08 22:14:00,
2013-06-08 15:15:00,84.5,33.4,29.85,NNE,25,5.0,10.0,16,0.00,,---,0.00,VWS V12.07,2013-06-08 22:15:00,
2013-06-08 15:17:00,84.3,31.7,29.85,NW,326,0.0,10.0,15,0.00,,---,0.00,VWS V12.07,2013-06-08 22:17:00,
2013-06-08 15:19:00,84.3,33.3,29.85,NNW,347,1.0,10.0,16,0.00,,---,0.00,VWS V12.07,2013-06-08 22:19:00,
2013-06-08 15:20:00,84.3,33.3,29.85,NNW,346,0.0,10.0,16,0.00,,---,0.00,VWS V12.07,2013-06-08 22:20:00,
2013-06-08 15:21:00,84.3,33.3,29.85,NNW,346,0.0,10.0,16,0.00,,---,0.00,VWS V12.07,2013-06-08 22:21:00,
2013-06-08 15:23:00,84.3,33.3,29.85,NNW,335,2.0,10.0,16,0.00,,---,0.00,VWS V12.07,2013-06-08 22:23:00,
2013-06-08 15:24:00,84.3,31.7,29.85,North,0,0.0,10.0,15,0.00,,---,0.00,VWS V12.07,2013-06-08 22:24:00,
2013-06-08 15:25:00,84.3,31.7,29.85,NW,308,1.0,10.0,15,0.00,,---,0.00,VWS V12.07,2013-06-08 22:25:00,
2013-06-08 15:26:00,84.3,33.3,29.85,NNE,13,2.0,10.0,16,0.00,,---,0.00,VWS V12.07,2013-06-08 22:26:00,
2013-06-08 15:28:00,84.3,33.3,29.85,NNW,337,0.0,10.0,16,0.00,,---,0.00,VWS V12.07,2013-06-08 22:28:00,
2013-06-08 15:29:00,84.5,33.4,29.85,NNW,347,2.0,10.0,16,0.00,,---,0.00,VWS V12.07,2013-06-08 22:29:00,
2013-06-08 15:30:00,84.5,33.4,29.85,NW,325,2.0,7.0,16,0.00,,---,0.00,VWS V12.07,2013-06-08 22:30:00,
2013-06-08 15:31:00,84.5,33.4,29.85,North,0,1.0,10.0,16,0.00,,---,0.00,VWS V12.07,2013-06-08 22:31:00,
2013-06-08 15:32:00,84.5,33.4,29.85,NNW,342,0.0,10.0,16,0.00,,---,0.00,VWS V12.07,2013-06-08 22:32:00,
2013-06-08 15:33:00,84.5,33.4,29.85,NW,326,1.0,10.0,16,0.00,,---,0.00,VWS V12.07,2013-06-08 22:33:00,
2013-06-08 15:34:00,84.5,33.4,29.85,NNW,337,0.0,10.0,16,0.00,,---,0.00,VWS V12.07,2013-06-08 22:34:00,
2013-06-08 15:35:00,84.5,33.4,29.85,NNW,337,0.0,10.0,16,0.00,,---,0.00,VWS V12.07,2013-06-08 22:35:00,
2013-06-08 15:36:00,84.7,35.1,29.85,NNW,337,0.0,10.0,17,0.00,,---,0.00,VWS V12.07,2013-06-08 22:36:00,
2013-06-08 15:38:00,84.7,35.1,29.85,NNE,21,2.0,10.0,17,0.00,,---,0.00,VWS V12.07,2013-06-08 22:38:00,
2013-06-08 15:39:00,84.9,35.3,29.85,NNE,14,0.0,10.0,17,0.00,,---,0.00,VWS V12.07,2013-06-08 22:39:00,
2013-06-08 15:40:00,84.7,35.1,29.85,NNE,14,2.0,10.0,17,0.00,,---,0.00,VWS V12.07,2013-06-08 22:40:00,
2013-06-08 15:42:00,84.5,35.0,29.85,ENE,58,0.0,10.0,17,0.00,,---,0.00,VWS V12.07,2013-06-08 22:42:00,
2013-06-08 15:44:00,84.5,35.0,29.84,ENE,58,0.0,10.0,17,0.00,,---,0.00,VWS V12.07,2013-06-08 22:44:00,
2013-06-08 15:45:00,83.6,34.2,29.84,SE,127,0.0,10.0,17,0.00,,---,0.00,VWS V12.07,2013-06-08 22:45:00,
2013-06-08 15:46:00,83.6,34.2,29.84,SE,127,0.0,10.0,17,0.00,,---,0.00,VWS V12.07,2013-06-08 22:46:00,
2013-06-08 15:47:00,83.4,34.1,29.84,SE,128,0.0,10.0,17,0.00,,---,0.00,VWS V12.07,2013-06-08 22:47:00,
2013-06-08 15:49:00,83.4,34.1,29.84,SE,130,0.0,10.0,17,0.00,,---,0.00,VWS V12.07,2013-06-08 22:49:00,
2013-06-08 15:50:00,83.6,34.2,29.84,SE,130,0.0,10.0,17,0.00,,---,0.00,VWS V12.07,2013-06-08 22:50:00,
2013-06-08 15:52:00,83.8,34.4,29.84,SE,126,1.0,10.0,17,0.00,,---,0.00,VWS V12.07,2013-06-08 22:52:00,
2013-06-08 15:53:00,83.8,34.4,29.84,SE,126,1.0,10.0,17,0.00,,---,0.00,VWS V12.07,2013-06-08 22:53:00,
2013-06-08 15:55:00,83.8,34.4,29.84,North,8,2.0,10.0,17,0.00,,---,0.00,VWS V12.07,2013-06-08 22:55:00,
2013-06-08 15:57:00,84.3,34.8,29.84,NW,326,0.0,10.0,17,0.00,,---,0.00,VWS V12.07,2013-06-08 22:57:00,
2013-06-08 15:58:00,84.3,36.2,29.84,NW,304,5.0,10.0,18,0.00,,---,0.00,VWS V12.07,2013-06-08 22:58:00,
2013-06-08 15:59:00,84.5,36.4,29.84,NW,325,0.0,10.0,18,0.00,,---,0.00,VWS V12.07,2013-06-08 22:59:00,
2013-06-08 16:00:00,84.5,36.4,29.84,North,3,2.0,10.0,18,0.00,,---,0.00,VWS V12.07,2013-06-08 23:00:00,
2013-06-08 16:02:00,84.5,36.4,29.84,North,10,10.0,10.0,18,0.00,,---,0.00,VWS V12.07,2013-06-08 23:02:00,
2013-06-08 16:03:00,84.5,36.4,29.84,NNE,27,7.0,10.0,18,0.00,,---,0.00,VWS V12.07,2013-06-08 23:03:00,
2013-06-08 16:04:00,84.5,36.4,29.84,NNE,27,7.0,10.0,18,0.00,,---,0.00,VWS V12.07,2013-06-08 23:04:00,
2013-06-08 16:05:00,84.5,36.4,29.84,NNE,27,7.0,10.0,18,0.00,,---,0.00,VWS V12.07,2013-06-08 23:05:00,
2013-06-08 16:06:00,84.5,36.4,29.84,North,6,1.0,10.0,18,0.00,,---,0.00,VWS V12.07,2013-06-08 23:06:00,
2013-06-08 16:08:00,84.5,36.4,29.84,NNW,339,0.0,10.0,18,0.00,,---,0.00,VWS V12.07,2013-06-08 23:08:00,
2013-06-08 16:09:00,84.5,41.5,29.84,WNW,288,3.0,10.0,22,0.00,,---,0.00,VWS V12.07,2013-06-08 23:09:00,
2013-06-08 16:10:00,84.5,41.5,29.84,NW,315,6.0,10.0,22,0.00,,---,0.00,VWS V12.07,2013-06-08 23:10:00,
2013-06-08 16:11:00,84.5,41.5,29.84,NW,308,0.0,10.0,22,0.00,,---,0.00,VWS V12.07,2013-06-08 23:11:00,
2013-06-08 16:13:00,84.5,41.5,29.84,North,359,0.0,10.0,22,0.00,,---,0.00,VWS V12.07,2013-06-08 23:13:00,
2013-06-08 16:15:00,84.3,41.4,29.84,North,359,0.0,10.0,22,0.00,,---,0.00,VWS V12.07,2013-06-08 23:15:00,
2013-06-08 16:16:00,84.3,41.4,29.84,North,359,0.0,10.0,22,0.00,,---,0.00,VWS V12.07,2013-06-08 23:16:00,
2013-06-08 16:19:00,84.3,41.4,29.84,North,359,0.0,10.0,22,0.00,,---,0.00,VWS V12.07,2013-06-08 23:19:00,
2013-06-08 16:20:00,84.3,41.4,29.84,NNW,347,2.0,7.0,22,0.00,,---,0.00,VWS V12.07,2013-06-08 23:20:00,
2013-06-08 16:21:00,84.3,41.4,29.84,NNW,347,2.0,10.0,22,0.00,,---,0.00,VWS V12.07,2013-06-08 23:21:00,
2013-06-08 16:22:00,84.3,41.4,29.84,West,270,2.0,10.0,22,0.00,,---,0.00,VWS V12.07,2013-06-08 23:22:00,
2013-06-08 16:23:00,84.3,41.4,29.84,North,11,8.0,10.0,22,0.00,,---,0.00,VWS V12.07,2013-06-08 23:23:00,
2013-06-08 16:24:00,84.3,42.5,29.84,NNW,344,5.0,10.0,23,0.00,,---,0.00,VWS V12.07,2013-06-08 23:24:00,
2013-06-08 16:27:00,84.3,43.6,29.84,North,359,0.0,10.0,24,0.00,,---,0.00,VWS V12.07,2013-06-08 23:27:00,
2013-06-08 16:29:00,84.1,43.5,29.84,North,4,4.0,10.0,24,0.00,,---,0.00,VWS V12.07,2013-06-08 23:29:00,
2013-06-08 16:30:00,84.3,43.6,29.84,NNW,328,2.0,10.0,24,0.00,,---,0.00,VWS V12.07,2013-06-08 23:30:00,
2013-06-08 16:32:00,84.3,43.6,29.84,North,6,0.0,10.0,24,0.00,,---,0.00,VWS V12.07,2013-06-08 23:32:00,
2013-06-08 16:33:00,84.3,43.6,29.84,North,7,0.0,10.0,24,0.00,,---,0.00,VWS V12.07,2013-06-08 23:33:00,
2013-06-08 16:34:00,84.5,43.8,29.84,NW,319,1.0,10.0,24,0.00,,---,0.00,VWS V12.07,2013-06-08 23:34:00,
2013-06-08 16:35:00,84.5,43.8,29.84,NW,318,7.0,10.0,24,0.00,,---,0.00,VWS V12.07,2013-06-08 23:35:00,
2013-06-08 16:38:00,84.5,42.7,29.84,NNW,339,5.0,10.0,23,0.00,,---,0.00,VWS V12.07,2013-06-08 23:38:00,
2013-06-08 16:39:00,84.3,42.5,29.84,NNW,330,0.0,10.0,23,0.00,,---,0.00,VWS V12.07,2013-06-08 23:39:00,
2013-06-08 16:40:00,84.3,43.6,29.84,NNW,339,5.0,10.0,24,0.00,,---,0.00,VWS V12.07,2013-06-08 23:40:00,
2013-06-08 16:41:00,84.3,43.6,29.84,North,359,1.0,10.0,24,0.00,,---,0.00,VWS V12.07,2013-06-08 23:41:00,
2013-06-08 16:44:00,84.3,43.6,29.84,North,7,0.0,10.0,24,0.00,,---,0.00,VWS V12.07,2013-06-08 23:44:00,
2013-06-08 16:45:00,84.3,43.6,29.84,WNW,296,6.0,10.0,24,0.00,,---,0.00,VWS V12.07,2013-06-08 23:45:00,
2013-06-08 16:46:00,84.3,43.6,29.84,North,354,0.0,10.0,24,0.00,,---,0.00,VWS V12.07,2013-06-08 23:46:00,
2013-06-08 16:47:00,84.3,43.6,29.84,North,354,0.0,10.0,24,0.00,,---,0.00,VWS V12.07,2013-06-08 23:47:00,
2013-06-08 16:49:00,84.5,44.9,29.84,NW,316,5.0,10.0,25,0.00,,---,0.00,VWS V12.07,2013-06-08 23:49:00,
2013-06-08 16:50:00,84.5,44.9,29.84,NW,316,0.0,10.0,25,0.00,,---,0.00,VWS V12.07,2013-06-08 23:50:00,
2013-06-08 16:52:00,84.5,44.9,29.84,NW,316,0.0,10.0,25,0.00,,---,0.00,VWS V12.07,2013-06-08 23:52:00,
2013-06-08 16:54:00,84.5,42.7,29.84,North,353,3.0,10.0,23,0.00,,---,0.00,VWS V12.07,2013-06-08 23:54:00,
2013-06-08 16:55:00,84.5,42.7,29.84,NNW,347,3.0,10.0,23,0.00,,---,0.00,VWS V12.07,2013-06-08 23:55:00,
2013-06-08 16:57:00,84.5,42.7,29.84,North,11,3.0,10.0,23,0.00,,---,0.00,VWS V12.07,2013-06-08 23:57:00,
2013-06-08 16:59:00,84.5,42.7,29.84,NNW,339,0.0,12.0,23,0.00,,---,0.00,VWS V12.07,2013-06-08 23:59:00,
2013-06-08 17:00:00,84.5,42.7,29.84,NNE,18,5.0,12.0,23,0.00,,---,0.00,VWS V12.07,2013-06-09 00:00:00,
2013-06-08 17:01:00,84.1,42.3,29.84,NNW,343,2.0,12.0,23,0.00,,---,0.00,VWS V12.07,2013-06-09 00:01:00,
2013-06-08 17:02:00,84.1,42.3,29.84,North,359,0.0,12.0,23,0.00,,---,0.00,VWS V12.07,2013-06-09 00:02:00,
2013-06-08 17:05:00,84.1,43.5,29.84,NW,308,1.0,12.0,24,0.00,,---,0.00,VWS V12.07,2013-06-09 00:05:00,
2013-06-08 17:06:00,84.1,43.5,29.84,NNE,13,2.0,12.0,24,0.00,,---,0.00,VWS V12.07,2013-06-09 00:06:00,
2013-06-08 17:07:00,84.1,43.5,29.84,NNW,346,3.0,12.0,24,0.00,,---,0.00,VWS V12.07,2013-06-09 00:07:00,
2013-06-08 17:08:00,84.1,43.5,29.84,NNW,329,0.0,12.0,24,0.00,,---,0.00,VWS V12.07,2013-06-09 00:08:00,
2013-06-08 17:10:00,84.1,43.5,29.84,North,7,0.0,12.0,24,0.00,,---,0.00,VWS V12.07,2013-06-09 00:10:00,
2013-06-08 17:11:00,84.1,43.5,29.84,North,8,3.0,12.0,24,0.00,,---,0.00,VWS V12.07,2013-06-09 00:11:00,
2013-06-08 17:12:00,84.1,43.5,29.84,NNE,21,2.0,12.0,24,0.00,,---,0.00,VWS V12.07,2013-06-09 00:12:00,
2013-06-08 17:13:00,84.1,43.5,29.84,NNE,24,5.0,12.0,24,0.00,,---,0.00,VWS V12.07,2013-06-09 00:13:00,
2013-06-08 17:16:00,84.0,43.4,29.85,North,0,0.0,12.0,24,0.00,,---,0.00,VWS V12.07,2013-06-09 00:16:00,
2013-06-08 17:17:00,84.0,43.4,29.85,North,0,0.0,12.0,24,0.00,,---,0.00,VWS V12.07,2013-06-09 00:17:00,
2013-06-08 17:18:00,84.0,43.4,29.85,North,357,2.0,12.0,24,0.00,,---,0.00,VWS V12.07,2013-06-09 00:18:00,
2013-06-08 17:19:00,84.0,43.4,29.85,North,11,7.0,12.0,24,0.00,,---,0.00,VWS V12.07,2013-06-09 00:19:00,
2013-06-08 17:20:00,84.0,43.4,29.85,North,11,7.0,7.0,24,0.00,,---,0.00,VWS V12.07,2013-06-09 00:20:00,
2013-06-08 17:22:00,84.0,44.4,29.85,NNE,14,1.0,12.0,25,0.00,,---,0.00,VWS V12.07,2013-06-09 00:22:00,
2013-06-08 17:23:00,84.0,44.4,29.85,WSW,240,1.0,12.0,25,0.00,,---,0.00,VWS V12.07,2013-06-09 00:23:00,
2013-06-08 17:24:00,84.0,43.4,29.85,North,354,1.0,12.0,24,0.00,,---,0.00,VWS V12.07,2013-06-09 00:24:00,
2013-06-08 17:25:00,84.0,43.4,29.85,North,354,1.0,12.0,24,0.00,,---,0.00,VWS V12.07,2013-06-09 00:25:00,
2013-06-08 17:27:00,84.0,43.4,29.85,NNE,20,1.0,12.0,24,0.00,,---,0.00,VWS V12.07,2013-06-09 00:27:00,
2013-06-08 17:28:00,84.1,43.5,29.85,NNE,18,0.0,12.0,24,0.00,,---,0.00,VWS V12.07,2013-06-09 00:28:00,
2013-06-08 17:30:00,84.1,43.5,29.84,North,0,0.0,12.0,24,0.00,,---,0.00,VWS V12.07,2013-06-09 00:30:00,
2013-06-08 17:33:00,84.1,43.5,29.84,NNE,13,2.0,12.0,24,0.00,,---,0.00,VWS V12.07,2013-06-09 00:33:00,
2013-06-08 17:35:00,84.1,43.5,29.84,North,10,3.0,12.0,24,0.00,,---,0.00,VWS V12.07,2013-06-09 00:35:00,
2013-06-08 17:38:00,84.7,45.0,29.84,North,0,0.0,12.0,25,0.00,,---,0.00,VWS V12.07,2013-06-09 00:38:00,
2013-06-08 17:39:00,84.7,45.0,29.84,North,0,0.0,12.0,25,0.00,,---,0.00,VWS V12.07,2013-06-09 00:39:00,
2013-06-08 17:40:00,84.7,46.1,29.84,North,0,1.0,12.0,26,0.00,,---,0.00,VWS V12.07,2013-06-09 00:40:00,
2013-06-08 17:42:00,84.7,46.1,29.84,WNW,284,0.0,12.0,26,0.00,,---,0.00,VWS V12.07,2013-06-09 00:42:00,
2013-06-08 17:44:00,84.7,46.1,29.83,NNE,20,1.0,12.0,26,0.00,,---,0.00,VWS V12.07,2013-06-09 00:44:00,
2013-06-08 17:45:00,84.7,45.0,29.83,North,11,1.0,12.0,25,0.00,,---,0.00,VWS V12.07,2013-06-09 00:45:00,
2013-06-08 17:48:00,84.7,45.0,29.83,NW,318,2.0,12.0,25,0.00,,---,0.00,VWS V12.07,2013-06-09 00:48:00,
2013-06-08 17:49:00,84.7,45.0,29.83,North,0,4.0,12.0,25,0.00,,---,0.00,VWS V12.07,2013-06-09 00:49:00,
2013-06-08 17:50:00,84.7,45.0,29.83,North,359,0.0,12.0,25,0.00,,---,0.00,VWS V12.07,2013-06-09 00:50:00,
2013-06-08 17:54:00,84.7,45.0,29.83,North,6,5.0,12.0,25,0.00,,---,0.00,VWS V12.07,2013-06-09 00:54:00,
2013-06-08 17:55:00,84.7,45.0,29.83,North,8,4.0,12.0,25,0.00,,---,0.00,VWS V12.07,2013-06-09 00:55:00,
2013-06-08 17:56:00,84.7,45.0,29.83,North,359,0.0,12.0,25,0.00,,---,0.00,VWS V12.07,2013-06-09 00:56:00,
2013-06-08 17:57:00,84.7,45.0,29.83,NNW,337,0.0,12.0,25,0.00,,---,0.00,VWS V12.07,2013-06-09 00:57:00,
2013-06-08 17:59:00,84.9,45.2,29.84,NW,313,5.0,12.0,25,0.00,,---,0.00,VWS V12.07,2013-06-09 00:59:00,
2013-06-08 18:00:00,84.9,45.2,29.84,NW,313,5.0,12.0,25,0.00,,---,0.00,VWS V12.07,2013-06-09 01:00:00,
2013-06-08 18:02:00,84.9,45.2,29.84,NW,313,5.0,12.0,25,0.00,,---,0.00,VWS V12.07,2013-06-09 01:02:00,
2013-06-08 18:03:00,84.9,45.2,29.84,NNE,14,1.0,12.0,25,0.00,,---,0.00,VWS V12.07,2013-06-09 01:03:00,
2013-06-08 18:04:00,84.9,45.2,29.84,NW,313,0.0,12.0,25,0.00,,---,0.00,VWS V12.07,2013-06-09 01:04:00,
2013-06-08 18:05:00,84.9,45.2,29.84,NNW,342,1.0,12.0,25,0.00,,---,0.00,VWS V12.07,2013-06-09 01:05:00,
2013-06-08 18:07:00,84.9,45.2,29.84,NW,305,2.0,12.0,25,0.00,,---,0.00,VWS V12.07,2013-06-09 01:07:00,
2013-06-08 18:08:00,84.9,45.2,29.84,North,354,4.0,12.0,25,0.00,,---,0.00,VWS V12.07,2013-06-09 01:08:00,
2013-06-08 18:09:00,84.9,45.2,29.84,NNE,16,0.0,12.0,25,0.00,,---,0.00,VWS V12.07,2013-06-09 01:09:00,
2013-06-08 18:10:00,84.9,45.2,29.84,NNE,16,0.0,12.0,25,0.00,,---,0.00,VWS V12.07,2013-06-09 01:10:00,
2013-06-08 18:12:00,84.7,46.1,29.84,NNE,13,3.0,12.0,26,0.00,,---,0.00,VWS V12.07,2013-06-09 01:12:00,
2013-06-08 18:14:00,84.7,46.1,29.84,North,7,0.0,12.0,26,0.00,,---,0.00,VWS V12.07,2013-06-09 01:14:00,
2013-06-08 18:15:00,84.7,46.1,29.81,North,7,0.0,12.0,26,0.00,,---,0.00,VWS V12.07,2013-06-09 01:15:00,
2013-06-08 18:17:00,84.7,46.1,29.81,North,359,1.0,12.0,26,0.00,,---,0.00,VWS V12.07,2013-06-09 01:17:00,
2013-06-08 18:19:00,84.3,45.7,29.81,NNE,16,0.0,12.0,26,0.00,,---,0.00,VWS V12.07,2013-06-09 01:19:00,
2013-06-08 18:20:00,84.3,46.7,29.81,NE,34,5.0,12.0,27,0.00,,---,0.00,VWS V12.07,2013-06-09 01:20:00,
2013-06-08 18:22:00,84.3,46.7,29.81,NNE,21,2.0,12.0,27,0.00,,---,0.00,VWS V12.07,2013-06-09 01:22:00,
2013-06-08 18:23:00,84.3,46.7,29.81,North,359,2.0,12.0,27,0.00,,---,0.00,VWS V12.07,2013-06-09 01:23:00,
2013-06-08 18:24:00,84.3,46.7,29.81,North,359,1.0,12.0,27,0.00,,---,0.00,VWS V12.07,2013-06-09 01:24:00,
2013-06-08 18:26:00,84.3,46.7,29.81,NW,318,5.0,12.0,27,0.00,,---,0.00,VWS V12.07,2013-06-09 01:26:00,
2013-06-08 18:27:00,84.1,46.5,29.81,North,0,2.0,12.0,27,0.00,,---,0.00,VWS V12.07,2013-06-09 01:27:00,
2013-06-08 18:28:00,84.1,46.5,29.81,North,0,2.0,12.0,27,0.00,,---,0.00,VWS V12.07,2013-06-09 01:28:00,
2013-06-08 18:30:00,84.1,46.5,29.82,North,349,2.0,12.0,27,0.00,,---,0.00,VWS V12.07,2013-06-09 01:30:00,
2013-06-08 18:32:00,83.8,46.3,29.82,North,359,0.0,12.0,27,0.00,,---,0.00,VWS V12.07,2013-06-09 01:32:00,
2013-06-08 18:33:00,83.8,46.3,29.82,North,359,0.0,12.0,27,0.00,,---,0.00,VWS V12.07,2013-06-09 01:33:00,
2013-06-08 18:35:00,83.8,46.3,29.82,North,0,0.0,12.0,27,0.00,,---,0.00,VWS V12.07,2013-06-09 01:35:00,
2013-06-08 18:38:00,83.8,46.3,29.82,NNE,28,0.0,12.0,27,0.00,,---,0.00,VWS V12.07,2013-06-09 01:38:00,
2013-06-08 18:39:00,83.8,46.3,29.82,North,3,0.0,12.0,27,0.00,,---,0.00,VWS V12.07,2013-06-09 01:39:00,
2013-06-08 18:40:00,83.8,46.3,29.82,North,3,0.0,2.0,27,0.00,,---,0.00,VWS V12.07,2013-06-09 01:40:00,
2013-06-08 18:41:00,83.8,46.3,29.82,North,3,0.0,12.0,27,0.00,,---,0.00,VWS V12.07,2013-06-09 01:41:00,
2013-06-08 18:43:00,83.8,46.3,29.82,NNE,25,0.0,12.0,27,0.00,,---,0.00,VWS V12.07,2013-06-09 01:43:00,
2013-06-08 18:44:00,84.0,45.5,29.82,North,0,0.0,12.0,26,0.00,,---,0.00,VWS V12.07,2013-06-09 01:44:00,
2013-06-08 18:47:00,83.8,45.3,29.82,North,0,0.0,12.0,26,0.00,,---,0.00,VWS V12.07,2013-06-09 01:47:00,
2013-06-08 18:48:00,83.6,45.1,29.82,NE,51,2.0,12.0,26,0.00,,---,0.00,VWS V12.07,2013-06-09 01:48:00,
2013-06-08 18:49:00,83.2,46.7,29.82,West,275,2.0,12.0,28,0.00,,---,0.00,VWS V12.07,2013-06-09 01:49:00,
2013-06-08 18:50:00,83.2,46.7,29.82,West,275,1.0,12.0,28,0.00,,---,0.00,VWS V12.07,2013-06-09 01:50:00,
2013-06-08 18:52:00,82.8,46.4,29.82,North,359,0.0,12.0,28,0.00,,---,0.00,VWS V12.07,2013-06-09 01:52:00,
2013-06-08 18:53:00,82.8,46.4,29.82,North,354,0.0,12.0,28,0.00,,---,0.00,VWS V12.07,2013-06-09 01:53:00,
2013-06-08 18:54:00,82.6,47.2,29.82,NNE,30,1.0,12.0,29,0.00,,---,0.00,VWS V12.07,2013-06-09 01:54:00,
2013-06-08 18:55:00,82.4,47.0,29.82,NNE,14,0.0,12.0,29,0.00,,---,0.00,VWS V12.07,2013-06-09 01:55:00,
2013-06-08 18:56:00,82.2,46.8,29.82,North,7,2.0,12.0,29,0.00,,---,0.00,VWS V12.07,2013-06-09 01:56:00,
2013-06-08 18:57:00,82.0,45.7,29.82,NW,322,0.0,12.0,28,0.00,,---,0.00,VWS V12.07,2013-06-09 01:57:00,
2013-06-08 18:59:00,82.0,45.7,29.82,North,8,2.0,12.0,28,0.00,,---,0.00,VWS V12.07,2013-06-09 01:59:00,
2013-06-08 19:00:00,81.6,45.4,29.83,North,359,3.0,12.0,28,0.00,,---,0.00,VWS V12.07,2013-06-09 02:00:00,
2013-06-08 19:01:00,81.6,45.4,29.83,North,354,0.0,12.0,28,0.00,,---,0.00,VWS V12.07,2013-06-09 02:01:00,
2013-06-08 19:02:00,81.6,45.4,29.83,North,354,0.0,12.0,28,0.00,,---,0.00,VWS V12.07,2013-06-09 02:02:00,
2013-06-08 19:03:00,81.4,45.2,29.83,NNE,18,2.0,12.0,28,0.00,,---,0.00,VWS V12.07,2013-06-09 02:03:00,
2013-06-08 19:04:00,81.4,45.2,29.83,North,11,1.0,12.0,28,0.00,,---,0.00,VWS V12.07,2013-06-09 02:04:00,
2013-06-08 19:05:00,81.4,45.2,29.83,North,11,0.0,12.0,28,0.00,,---,0.00,VWS V12.07,2013-06-09 02:05:00,
2013-06-08 19:07:00,81.2,45.0,29.83,NNW,329,1.0,12.0,28,0.00,,---,0.00,VWS V12.07,2013-06-09 02:07:00,
2013-06-08 19:08:00,81.2,45.0,29.83,NNW,335,0.0,12.0,28,0.00,,---,0.00,VWS V12.07,2013-06-09 02:08:00,
2013-06-08 19:09:00,81.2,45.0,29.83,NNW,343,2.0,12.0,28,0.00,,---,0.00,VWS V12.07,2013-06-09 02:09:00,
2013-06-08 19:10:00,81.2,45.0,29.83,NNW,343,2.0,12.0,28,0.00,,---,0.00,VWS V12.07,2013-06-09 02:10:00,
2013-06-08 19:11:00,81.1,44.9,29.83,NNW,343,0.0,12.0,28,0.00,,---,0.00,VWS V12.07,2013-06-09 02:11:00,
2013-06-08 19:12:00,81.1,44.9,29.83,NNW,346,1.0,12.0,28,0.00,,---,0.00,VWS V12.07,2013-06-09 02:12:00,
2013-06-08 19:13:00,81.1,44.9,29.83,NNW,346,1.0,12.0,28,0.00,,---,0.00,VWS V12.07,2013-06-09 02:13:00,
2013-06-08 19:15:00,81.1,44.9,29.79,NNE,31,2.0,12.0,28,0.00,,---,0.00,VWS V12.07,2013-06-09 02:15:00,
2013-06-08 19:16:00,80.9,44.8,29.79,North,4,2.0,12.0,28,0.00,,---,0.00,VWS V12.07,2013-06-09 02:16:00,
2013-06-08 19:17:00,80.9,44.8,29.79,North,1,0.0,12.0,28,0.00,,---,0.00,VWS V12.07,2013-06-09 02:17:00,
2013-06-08 19:18:00,80.7,44.6,29.79,North,1,0.0,12.0,28,0.00,,---,0.00,VWS V12.07,2013-06-09 02:18:00,
2013-06-08 19:20:00,80.5,44.4,29.79,North,11,0.0,12.0,28,0.00,,---,0.00,VWS V12.07,2013-06-09 02:20:00,
2013-06-08 19:22:00,80.5,44.4,29.79,North,11,3.0,12.0,28,0.00,,---,0.00,VWS V12.07,2013-06-09 02:22:00,
2013-06-08 19:23:00,80.5,44.4,29.79,NNE,14,1.0,12.0,28,0.00,,---,0.00,VWS V12.07,2013-06-09 02:23:00,
2013-06-08 19:25:00,80.5,44.4,29.79,NNW,347,0.0,12.0,28,0.00,,---,0.00,VWS V12.07,2013-06-09 02:25:00,
2013-06-08 19:27:00,80.5,44.4,29.79,North,11,0.0,12.0,28,0.00,,---,0.00,VWS V12.07,2013-06-09 02:27:00,
2013-06-08 19:28:00,79.9,43.9,29.79,North,11,0.0,12.0,28,0.00,,---,0.00,VWS V12.07,2013-06-09 02:28:00,
2013-06-08 19:30:00,79.8,43.8,29.80,NNE,16,1.0,12.0,28,0.00,,---,0.00,VWS V12.07,2013-06-09 02:30:00,
2013-06-08 19:31:00,79.8,43.8,29.80,NNE,30,2.0,12.0,28,0.00,,---,0.00,VWS V12.07,2013-06-09 02:31:00,
2013-06-08 19:32:00,79.8,43.8,29.80,NNE,30,0.0,12.0,28,0.00,,---,0.00,VWS V12.07,2013-06-09 02:32:00,
2013-06-08 19:34:00,79.6,44.6,29.80,NNW,332,1.0,12.0,29,0.00,,---,0.00,VWS V12.07,2013-06-09 02:34:00,
2013-06-08 19:35:00,79.2,44.2,29.80,North,354,3.0,12.0,29,0.00,,---,0.00,VWS V12.07,2013-06-09 02:35:00,
2013-06-08 19:37:00,79.0,44.1,29.80,North,0,1.0,12.0,29,0.00,,---,0.00,VWS V12.07,2013-06-09 02:37:00,
2013-06-08 19:40:00,78.6,43.7,29.80,North,0,0.0,12.0,29,0.00,,---,0.00,VWS V12.07,2013-06-09 02:40:00,
2013-06-08 19:42:00,78.5,43.6,29.80,North,0,0.0,12.0,29,0.00,,---,0.00,VWS V12.07,2013-06-09 02:42:00,
2013-06-08 19:43:00,78.5,43.6,29.80,North,0,0.0,12.0,29,0.00,,---,0.00,VWS V12.07,2013-06-09 02:43:00,
2013-06-08 19:45:00,78.1,44.2,29.81,West,260,2.0,12.0,30,0.00,,---,0.00,VWS V12.07,2013-06-09 02:45:00,
2013-06-08 19:47:00,78.1,44.2,29.81,North,356,0.0,12.0,30,0.00,,---,0.00,VWS V12.07,2013-06-09 02:47:00,
2013-06-08 19:48:00,77.6,43.7,29.81,NNE,14,0.0,12.0,30,0.00,,---,0.00,VWS V12.07,2013-06-09 02:48:00,
2013-06-08 19:49:00,77.6,43.7,29.81,NNE,14,0.0,12.0,30,0.00,,---,0.00,VWS V12.07,2013-06-09 02:49:00,
2013-06-08 19:50:00,77.6,43.7,29.81,North,4,1.0,2.0,30,0.00,,---,0.00,VWS V12.07,2013-06-09 02:50:00,
2013-06-08 19:51:00,77.6,43.7,29.81,North,4,1.0,12.0,30,0.00,,---,0.00,VWS V12.07,2013-06-09 02:51:00,
2013-06-08 19:53:00,77.6,43.7,29.81,North,3,3.0,12.0,30,0.00,,---,0.00,VWS V12.07,2013-06-09 02:53:00,
2013-06-08 19:54:00,77.6,43.7,29.81,NW,313,2.0,12.0,30,0.00,,---,0.00,VWS V12.07,2013-06-09 02:54:00,
2013-06-08 19:55:00,77.6,43.7,29.81,NNW,342,0.0,12.0,30,0.00,,---,0.00,VWS V12.07,2013-06-09 02:55:00,
2013-06-08 19:59:00,76.7,43.0,29.82,NNW,340,0.0,12.0,30,0.00,,---,0.00,VWS V12.07,2013-06-09 02:59:00,
2013-06-08 20:00:00,76.7,43.0,29.82,NNW,340,0.0,12.0,30,0.00,,---,0.00,VWS V12.07,2013-06-09 03:00:00,
2013-06-08 20:04:00,76.7,43.8,29.82,North,0,2.0,12.0,31,0.00,,---,0.00,VWS V12.07,2013-06-09 03:04:00,
2013-06-08 20:05:00,76.7,43.8,29.82,North,0,0.0,12.0,31,0.00,,---,0.00,VWS V12.07,2013-06-09 03:05:00,
2013-06-08 20:08:00,76.7,43.8,29.82,North,0,0.0,12.0,31,0.00,,---,0.00,VWS V12.07,2013-06-09 03:08:00,
2013-06-08 20:10:00,75.6,42.9,29.82,North,0,0.0,12.0,31,0.00,,---,0.00,VWS V12.07,2013-06-09 03:10:00,
2013-06-08 20:11:00,75.4,42.7,29.82,North,0,0.0,12.0,31,0.00,,---,0.00,VWS V12.07,2013-06-09 03:11:00,
2013-06-08 20:12:00,75.4,42.7,29.82,North,0,0.0,12.0,31,0.00,,---,0.00,VWS V12.07,2013-06-09 03:12:00,
2013-06-08 20:14:00,75.3,42.6,29.82,North,0,0.0,12.0,31,0.00,,---,0.00,VWS V12.07,2013-06-09 03:14:00,
2013-06-08 20:15:00,75.3,42.6,29.80,North,0,0.0,12.0,31,0.00,,---,0.00,VWS V12.07,2013-06-09 03:15:00,
2013-06-08 20:17:00,75.3,42.6,29.80,North,0,0.0,12.0,31,0.00,,---,0.00,VWS V12.07,2013-06-09 03:17:00,
2013-06-08 20:18:00,75.3,42.6,29.80,North,0,0.0,12.0,31,0.00,,---,0.00,VWS V12.07,2013-06-09 03:18:00,
2013-06-08 20:19:00,75.3,42.6,29.80,North,0,0.0,12.0,31,0.00,,---,0.00,VWS V12.07,2013-06-09 03:19:00,
2013-06-08 20:20:00,74.7,42.9,29.80,North,0,0.0,12.0,32,0.00,,---,0.00,VWS V12.07,2013-06-09 03:20:00,
2013-06-08 20:21:00,74.7,42.9,29.80,North,0,0.0,12.0,32,0.00,,---,0.00,VWS V12.07,2013-06-09 03:21:00,
2013-06-08 20:23:00,74.6,42.8,29.80,North,0,0.0,12.0,32,0.00,,---,0.00,VWS V12.07,2013-06-09 03:23:00,
2013-06-08 20:24:00,74.6,42.8,29.80,North,0,0.0,12.0,32,0.00,,---,0.00,VWS V12.07,2013-06-09 03:24:00,
2013-06-08 20:25:00,74.6,42.8,29.80,North,0,0.0,12.0,32,0.00,,---,0.00,VWS V12.07,2013-06-09 03:25:00,
2013-06-08 20:26:00,74.6,42.8,29.80,North,0,0.0,12.0,32,0.00,,---,0.00,VWS V12.07,2013-06-09 03:26:00,
2013-06-08 20:28:00,74.2,42.5,29.80,North,0,0.0,12.0,32,0.00,,---,0.00,VWS V12.07,2013-06-09 03:28:00,
2013-06-08 20:30:00,74.0,42.3,29.80,North,0,0.0,12.0,32,0.00,,---,0.00,VWS V12.07,2013-06-09 03:30:00,
2013-06-08 20:31:00,74.0,42.3,29.80,North,0,0.0,12.0,32,0.00,,---,0.00,VWS V12.07,2013-06-09 03:31:00,
2013-06-08 20:33:00,73.9,42.2,29.80,North,0,0.0,12.0,32,0.00,,---,0.00,VWS V12.07,2013-06-09 03:33:00,
2013-06-08 20:35:00,73.9,42.2,29.80,North,0,0.0,12.0,32,0.00,,---,0.00,VWS V12.07,2013-06-09 03:35:00,
2013-06-08 20:36:00,73.9,42.2,29.80,North,0,0.0,12.0,32,0.00,,---,0.00,VWS V12.07,2013-06-09 03:36:00,
2013-06-08 20:37:00,73.9,42.2,29.80,North,0,0.0,12.0,32,0.00,,---,0.00,VWS V12.07,2013-06-09 03:37:00,
2013-06-08 20:40:00,72.8,42.0,29.80,North,0,0.0,12.0,33,0.00,,---,0.00,VWS V12.07,2013-06-09 03:40:00,
2013-06-08 20:41:00,72.8,42.0,29.80,North,0,0.0,12.0,33,0.00,,---,0.00,VWS V12.07,2013-06-09 03:41:00,
2013-06-08 20:42:00,72.8,42.0,29.80,North,0,0.0,12.0,33,0.00,,---,0.00,VWS V12.07,2013-06-09 03:42:00,
2013-06-08 20:44:00,72.5,41.8,29.80,North,0,0.0,12.0,33,0.00,,---,0.00,VWS V12.07,2013-06-09 03:44:00,
2013-06-08 20:45:00,72.1,42.2,29.80,North,0,0.0,12.0,34,0.00,,---,0.00,VWS V12.07,2013-06-09 03:45:00,
2013-06-08 20:47:00,72.0,42.1,29.80,North,0,0.0,12.0,34,0.00,,---,0.00,VWS V12.07,2013-06-09 03:47:00,
2013-06-08 20:48:00,72.0,42.1,29.80,North,0,0.0,12.0,34,0.00,,---,0.00,VWS V12.07,2013-06-09 03:48:00,
2013-06-08 20:49:00,71.6,42.5,29.80,North,0,0.0,12.0,35,0.00,,---,0.00,VWS V12.07,2013-06-09 03:49:00,
2013-06-08 20:50:00,71.6,42.5,29.80,North,0,0.0,0.0,35,0.00,,---,0.00,VWS V12.07,2013-06-09 03:50:00,
2013-06-08 20:51:00,71.5,42.4,29.80,North,0,0.0,12.0,35,0.00,,---,0.00,VWS V12.07,2013-06-09 03:51:00,
2013-06-08 20:52:00,71.3,42.3,29.80,North,0,0.0,12.0,35,0.00,,---,0.00,VWS V12.07,2013-06-09 03:52:00,
2013-06-08 20:53:00,71.1,42.1,29.80,North,0,0.0,12.0,35,0.00,,---,0.00,VWS V12.07,2013-06-09 03:53:00,
2013-06-08 20:54:00,71.1,42.1,29.80,North,0,0.0,12.0,35,0.00,,---,0.00,VWS V12.07,2013-06-09 03:54:00,
2013-06-08 20:56:00,71.1,42.1,29.80,North,0,0.0,12.0,35,0.00,,---,0.00,VWS V12.07,2013-06-09 03:56:00,
2013-06-08 20:58:00,71.1,42.8,29.80,North,0,0.0,12.0,36,0.00,,---,0.00,VWS V12.07,2013-06-09 03:58:00,
2013-06-08 20:59:00,70.6,42.4,29.81,North,0,0.0,12.0,36,0.00,,---,0.00,VWS V12.07,2013-06-09 03:59:00,
2013-06-08 21:00:00,70.4,42.2,29.81,North,0,0.0,12.0,36,0.00,,---,0.00,VWS V12.07,2013-06-09 04:00:00,
2013-06-08 21:01:00,70.3,42.1,29.81,North,0,0.0,12.0,36,0.00,,---,0.00,VWS V12.07,2013-06-09 04:01:00,
2013-06-08 21:02:00,70.1,41.9,29.81,North,0,0.0,12.0,36,0.00,,---,0.00,VWS V12.07,2013-06-09 04:02:00,
2013-06-08 21:06:00,69.3,41.2,29.81,North,0,0.0,12.0,36,0.00,,---,0.00,VWS V12.07,2013-06-09 04:06:00,
2013-06-08 21:07:00,69.1,41.0,29.81,North,0,0.0,12.0,36,0.00,,---,0.00,VWS V12.07,2013-06-09 04:07:00,
2013-06-08 21:10:00,68.6,40.6,29.81,North,0,0.0,0.0,36,0.00,,---,0.00,VWS V12.07,2013-06-09 04:10:00,
2013-06-08 21:11:00,68.6,40.6,29.81,North,0,0.0,12.0,36,0.00,,---,0.00,VWS V12.07,2013-06-09 04:11:00,
2013-06-08 21:12:00,68.3,40.3,29.81,North,0,0.0,12.0,36,0.00,,---,0.00,VWS V12.07,2013-06-09 04:12:00,
2013-06-08 21:13:00,68.1,40.2,29.81,North,0,0.0,12.0,36,0.00,,---,0.00,VWS V12.07,2013-06-09 04:13:00,
2013-06-08 21:15:00,67.6,41.1,29.80,North,0,0.0,12.0,38,0.00,,---,0.00,VWS V12.07,2013-06-09 04:15:00,
2013-06-08 21:16:00,67.6,41.1,29.80,North,0,0.0,12.0,38,0.00,,---,0.00,VWS V12.07,2013-06-09 04:16:00,
2013-06-08 21:17:00,67.3,40.8,29.80,North,0,0.0,12.0,38,0.00,,---,0.00,VWS V12.07,2013-06-09 04:17:00,
2013-06-08 21:18:00,67.1,40.7,29.80,North,0,0.0,12.0,38,0.00,,---,0.00,VWS V12.07,2013-06-09 04:18:00,
2013-06-08 21:19:00,66.6,40.2,29.80,North,0,0.0,12.0,38,0.00,,---,0.00,VWS V12.07,2013-06-09 04:19:00,
2013-06-08 21:20:00,66.4,40.0,29.80,North,0,0.0,0.0,38,0.00,,---,0.00,VWS V12.07,2013-06-09 04:20:00,
2013-06-08 21:22:00,65.8,40.2,29.80,North,0,0.0,12.0,39,0.00,,---,0.00,VWS V12.07,2013-06-09 04:22:00,
2013-06-08 21:23:00,65.6,40.0,29.80,North,0,0.0,12.0,39,0.00,,---,0.00,VWS V12.07,2013-06-09 04:23:00,
2013-06-08 21:24:00,65.3,39.1,29.80,North,0,0.0,12.0,38,0.00,,---,0.00,VWS V12.07,2013-06-09 04:24:00,
2013-06-08 21:28:00,64.7,39.2,29.80,North,0,0.0,12.0,39,0.00,,---,0.00,VWS V12.07,2013-06-09 04:28:00,
2013-06-08 21:29:00,64.5,39.0,29.81,North,0,0.0,12.0,39,0.00,,---,0.00,VWS V12.07,2013-06-09 04:29:00,
2013-06-08 21:30:00,64.5,39.0,29.81,North,0,0.0,12.0,39,0.00,,---,0.00,VWS V12.07,2013-06-09 04:30:00,
2013-06-08 21:33:00,64.2,38.8,29.81,North,0,0.0,12.0,39,0.00,,---,0.00,VWS V12.07,2013-06-09 04:33:00,
2013-06-08 21:34:00,63.9,39.1,29.81,North,0,0.0,12.0,40,0.00,,---,0.00,VWS V12.07,2013-06-09 04:34:00,
2013-06-08 21:35:00,63.7,39.0,29.81,North,0,0.0,12.0,40,0.00,,---,0.00,VWS V12.07,2013-06-09 04:35:00,
2013-06-08 21:38:00,63.2,39.1,29.81,North,0,0.0,12.0,41,0.00,,---,0.00,VWS V12.07,2013-06-09 04:38:00,
2013-06-08 21:39:00,63.1,39.0,29.81,North,0,0.0,12.0,41,0.00,,---,0.00,VWS V12.07,2013-06-09 04:39:00,
2013-06-08 21:40:00,62.9,38.9,29.81,North,0,0.0,0.0,41,0.00,,---,0.00,VWS V12.07,2013-06-09 04:40:00,
2013-06-08 21:41:00,62.6,38.6,29.81,North,0,0.0,12.0,41,0.00,,---,0.00,VWS V12.07,2013-06-09 04:41:00,
2013-06-08 21:43:00,62.1,38.1,29.81,North,0,0.0,12.0,41,0.00,,---,0.00,VWS V12.07,2013-06-09 04:43:00,
2013-06-08 21:44:00,62.1,38.1,29.83,North,0,0.0,12.0,41,0.00,,---,0.00,VWS V12.07,2013-06-09 04:44:00,
2013-06-08 21:45:00,62.1,38.1,29.83,North,0,0.0,12.0,41,0.00,,---,0.00,VWS V12.07,2013-06-09 04:45:00,
2013-06-08 21:47:00,61.8,40.3,29.83,North,0,0.0,12.0,45,0.00,,---,0.00,VWS V12.07,2013-06-09 04:47:00,
2013-06-08 21:49:00,61.8,40.3,29.83,North,0,0.0,12.0,45,0.00,,---,0.00,VWS V12.07,2013-06-09 04:49:00,
2013-06-08 21:50:00,61.6,40.1,29.83,North,0,0.0,0.0,45,0.00,,---,0.00,VWS V12.07,2013-06-09 04:50:00,
2013-06-08 21:51:00,61.5,40.5,29.83,North,0,0.0,12.0,46,0.00,,---,0.00,VWS V12.07,2013-06-09 04:51:00,
2013-06-08 21:52:00,61.3,40.4,29.83,North,0,0.0,12.0,46,0.00,,---,0.00,VWS V12.07,2013-06-09 04:52:00,
2013-06-08 21:54:00,60.9,40.5,29.83,North,0,0.0,12.0,47,0.00,,---,0.00,VWS V12.07,2013-06-09 04:54:00,
2013-06-08 21:56:00,60.5,40.2,29.83,North,0,0.0,12.0,47,0.00,,---,0.00,VWS V12.07,2013-06-09 04:56:00,
2013-06-08 21:57:00,60.2,39.9,29.83,North,0,0.0,12.0,47,0.00,,---,0.00,VWS V12.07,2013-06-09 04:57:00,
2013-06-08 21:58:00,60.2,39.9,29.83,North,0,0.0,12.0,47,0.00,,---,0.00,VWS V12.07,2013-06-09 04:58:00,
2013-06-08 22:00:00,59.8,40.1,29.84,North,0,0.0,12.0,48,0.00,,---,0.00,VWS V12.07,2013-06-09 05:00:00,
2013-06-08 22:02:00,59.6,39.9,29.84,North,0,0.0,12.0,48,0.00,,---,0.00,VWS V12.07,2013-06-09 05:02:00,
2013-06-08 22:03:00,59.5,39.8,29.84,North,0,0.0,12.0,48,0.00,,---,0.00,VWS V12.07,2013-06-09 05:03:00,
2013-06-08 22:04:00,59.5,39.8,29.84,North,0,0.0,12.0,48,0.00,,---,0.00,VWS V12.07,2013-06-09 05:04:00,
2013-06-08 22:06:00,59.3,39.6,29.84,North,0,0.0,12.0,48,0.00,,---,0.00,VWS V12.07,2013-06-09 05:06:00,
2013-06-08 22:07:00,59.3,39.6,29.84,North,0,0.0,12.0,48,0.00,,---,0.00,VWS V12.07,2013-06-09 05:07:00,
2013-06-08 22:08:00,59.3,39.6,29.84,North,0,0.0,12.0,48,0.00,,---,0.00,VWS V12.07,2013-06-09 05:08:00,
2013-06-08 22:09:00,59.3,39.6,29.84,North,0,0.0,12.0,48,0.00,,---,0.00,VWS V12.07,2013-06-09 05:09:00,
2013-06-08 22:10:00,59.3,39.6,29.84,North,0,0.0,12.0,48,0.00,,---,0.00,VWS V12.07,2013-06-09 05:10:00,
2013-06-08 22:12:00,59.2,39.5,29.84,North,0,0.0,12.0,48,0.00,,---,0.00,VWS V12.07,2013-06-09 05:12:00,
2013-06-08 22:13:00,59.2,39.5,29.84,North,0,0.0,12.0,48,0.00,,---,0.00,VWS V12.07,2013-06-09 05:13:00,
2013-06-08 22:14:00,59.2,39.5,29.83,North,0,0.0,12.0,48,0.00,,---,0.00,VWS V12.07,2013-06-09 05:14:00,
2013-06-08 22:15:00,59.0,39.4,29.83,North,0,0.0,12.0,48,0.00,,---,0.00,VWS V12.07,2013-06-09 05:15:00,
2013-06-08 22:17:00,58.9,39.3,29.83,North,0,0.0,12.0,48,0.00,,---,0.00,VWS V12.07,2013-06-09 05:17:00,
2013-06-08 22:18:00,58.7,39.1,29.83,North,0,0.0,12.0,48,0.00,,---,0.00,VWS V12.07,2013-06-09 05:18:00,
2013-06-08 22:19:00,58.6,39.5,29.83,North,0,0.0,12.0,49,0.00,,---,0.00,VWS V12.07,2013-06-09 05:19:00,
2013-06-08 22:20:00,58.4,39.3,29.83,North,0,0.0,12.0,49,0.00,,---,0.00,VWS V12.07,2013-06-09 05:20:00,
2013-06-08 22:22:00,58.3,39.8,29.83,North,0,0.0,12.0,50,0.00,,---,0.00,VWS V12.07,2013-06-09 05:22:00,
2013-06-08 22:24:00,58.0,39.5,29.83,North,0,1.0,12.0,50,0.00,,---,0.00,VWS V12.07,2013-06-09 05:24:00,
2013-06-08 22:25:00,58.0,40.0,29.83,North,0,0.0,12.0,51,0.00,,---,0.00,VWS V12.07,2013-06-09 05:25:00,
2013-06-08 22:27:00,57.6,39.1,29.83,North,0,0.0,12.0,50,0.00,,---,0.00,VWS V12.07,2013-06-09 05:27:00,
2013-06-08 22:29:00,57.5,39.5,29.83,North,0,0.0,12.0,51,0.00,,---,0.00,VWS V12.07,2013-06-09 05:29:00,
2013-06-08 22:30:00,57.3,39.3,29.84,North,0,0.0,12.0,51,0.00,,---,0.00,VWS V12.07,2013-06-09 05:30:00,
2013-06-08 22:31:00,57.2,39.2,29.84,North,0,0.0,12.0,51,0.00,,---,0.00,VWS V12.07,2013-06-09 05:31:00,
2013-06-08 22:33:00,57.0,39.1,29.84,North,0,0.0,12.0,51,0.00,,---,0.00,VWS V12.07,2013-06-09 05:33:00,
2013-06-08 22:34:00,56.9,39.0,29.84,North,0,0.0,12.0,51,0.00,,---,0.00,VWS V12.07,2013-06-09 05:34:00,
2013-06-08 22:35:00,56.9,39.0,29.84,North,0,0.0,12.0,51,0.00,,---,0.00,VWS V12.07,2013-06-09 05:35:00,
2013-06-08 22:37:00,56.7,38.8,29.84,North,0,0.0,12.0,51,0.00,,---,0.00,VWS V12.07,2013-06-09 05:37:00,
2013-06-08 22:38:00,56.6,39.7,29.84,North,0,0.0,12.0,53,0.00,,---,0.00,VWS V12.07,2013-06-09 05:38:00,
2013-06-08 22:39:00,56.6,39.7,29.84,North,0,0.0,12.0,53,0.00,,---,0.00,VWS V12.07,2013-06-09 05:39:00,
2013-06-08 22:40:00,56.5,40.1,29.84,North,0,0.0,12.0,54,0.00,,---,0.00,VWS V12.07,2013-06-09 05:40:00,
2013-06-08 22:42:00,56.3,39.9,29.84,North,0,0.0,12.0,54,0.00,,---,0.00,VWS V12.07,2013-06-09 05:42:00,
2013-06-08 22:44:00,56.3,40.4,29.85,North,0,0.0,12.0,55,0.00,,---,0.00,VWS V12.07,2013-06-09 05:44:00,
2013-06-08 22:45:00,56.3,39.9,29.85,North,0,0.0,12.0,54,0.00,,---,0.00,VWS V12.07,2013-06-09 05:45:00,
2013-06-08 22:46:00,56.3,39.9,29.85,North,0,0.0,12.0,54,0.00,,---,0.00,VWS V12.07,2013-06-09 05:46:00,
2013-06-08 22:47:00,56.2,39.8,29.85,North,0,0.0,12.0,54,0.00,,---,0.00,VWS V12.07,2013-06-09 05:47:00,
2013-06-08 22:49:00,56.2,39.8,29.85,North,0,0.0,12.0,54,0.00,,---,0.00,VWS V12.07,2013-06-09 05:49:00,
2013-06-08 22:50:00,56.0,39.6,29.85,North,0,0.0,0.0,54,0.00,,---,0.00,VWS V12.07,2013-06-09 05:50:00,
2013-06-08 22:51:00,56.0,39.6,29.85,North,0,0.0,12.0,54,0.00,,---,0.00,VWS V12.07,2013-06-09 05:51:00,
2013-06-08 22:52:00,55.9,39.5,29.85,North,0,0.0,12.0,54,0.00,,---,0.00,VWS V12.07,2013-06-09 05:52:00,
2013-06-08 22:53:00,55.7,39.3,29.85,North,0,0.0,12.0,54,0.00,,---,0.00,VWS V12.07,2013-06-09 05:53:00,
2013-06-08 22:55:00,55.7,40.3,29.85,North,0,0.0,12.0,56,0.00,,---,0.00,VWS V12.07,2013-06-09 05:55:00,
2013-06-08 22:57:00,55.6,40.2,29.85,North,0,0.0,12.0,56,0.00,,---,0.00,VWS V12.07,2013-06-09 05:57:00,
2013-06-08 22:59:00,55.3,39.9,29.84,North,0,0.0,12.0,56,0.00,,---,0.00,VWS V12.07,2013-06-09 05:59:00,
2013-06-08 23:00:00,55.3,39.9,29.84,North,0,0.0,1.0,56,0.00,,---,0.00,VWS V12.07,2013-06-09 06:00:00,
2013-06-08 23:01:00,55.3,39.9,29.84,North,0,0.0,12.0,56,0.00,,---,0.00,VWS V12.07,2013-06-09 06:01:00,
2013-06-08 23:02:00,55.1,39.7,29.84,North,0,0.0,12.0,56,0.00,,---,0.00,VWS V12.07,2013-06-09 06:02:00,
2013-06-08 23:03:00,55.0,39.6,29.84,North,0,0.0,12.0,56,0.00,,---,0.00,VWS V12.07,2013-06-09 06:03:00,
2013-06-08 23:04:00,54.8,39.9,29.84,North,0,0.0,12.0,57,0.00,,---,0.00,VWS V12.07,2013-06-09 06:04:00,
2013-06-08 23:05:00,54.8,39.9,29.84,North,0,0.0,12.0,57,0.00,,---,0.00,VWS V12.07,2013-06-09 06:05:00,
2013-06-08 23:06:00,54.7,39.8,29.84,North,0,0.0,12.0,57,0.00,,---,0.00,VWS V12.07,2013-06-09 06:06:00,
2013-06-08 23:08:00,54.4,39.5,29.84,North,0,0.0,12.0,57,0.00,,---,0.00,VWS V12.07,2013-06-09 06:08:00,
2013-06-08 23:09:00,54.4,39.5,29.84,North,0,0.0,12.0,57,0.00,,---,0.00,VWS V12.07,2013-06-09 06:09:00,
2013-06-08 23:10:00,54.2,39.3,29.84,North,0,0.0,12.0,57,0.00,,---,0.00,VWS V12.07,2013-06-09 06:10:00,
2013-06-08 23:12:00,54.1,39.7,29.84,North,0,0.0,12.0,58,0.00,,---,0.00,VWS V12.07,2013-06-09 06:12:00,
2013-06-08 23:13:00,53.9,39.5,29.84,North,0,0.0,12.0,58,0.00,,---,0.00,VWS V12.07,2013-06-09 06:13:00,
2013-06-08 23:14:00,53.9,39.5,29.83,North,0,0.0,12.0,58,0.00,,---,0.00,VWS V12.07,2013-06-09 06:14:00,
2013-06-08 23:16:00,53.8,39.4,29.83,North,0,0.0,12.0,58,0.00,,---,0.00,VWS V12.07,2013-06-09 06:16:00,
2013-06-08 23:19:00,53.6,39.6,29.83,North,0,0.0,12.0,59,0.00,,---,0.00,VWS V12.07,2013-06-09 06:19:00,
2013-06-08 23:20:00,53.6,39.6,29.83,North,0,0.0,12.0,59,0.00,,---,0.00,VWS V12.07,2013-06-09 06:20:00,
2013-06-08 23:21:00,53.6,39.6,29.83,North,0,0.0,12.0,59,0.00,,---,0.00,VWS V12.07,2013-06-09 06:21:00,
2013-06-08 23:24:00,53.6,39.6,29.83,North,0,0.0,12.0,59,0.00,,---,0.00,VWS V12.07,2013-06-09 06:24:00,
2013-06-08 23:25:00,53.6,39.6,29.83,North,0,0.0,12.0,59,0.00,,---,0.00,VWS V12.07,2013-06-09 06:25:00,
2013-06-08 23:26:00,53.6,39.6,29.83,North,0,0.0,12.0,59,0.00,,---,0.00,VWS V12.07,2013-06-09 06:26:00,
2013-06-08 23:27:00,53.1,39.2,29.83,North,0,0.0,12.0,59,0.00,,---,0.00,VWS V12.07,2013-06-09 06:27:00,
2013-06-08 23:29:00,52.8,38.9,29.83,North,0,0.0,12.0,59,0.00,,---,0.00,VWS V12.07,2013-06-09 06:29:00,
2013-06-08 23:30:00,52.8,38.9,29.83,North,0,0.0,12.0,59,0.00,,---,0.00,VWS V12.07,2013-06-09 06:30:00,
2013-06-08 23:31:00,52.6,38.7,29.83,North,0,0.0,12.0,59,0.00,,---,0.00,VWS V12.07,2013-06-09 06:31:00,
2013-06-08 23:34:00,52.5,39.0,29.83,North,0,0.0,12.0,60,0.00,,---,0.00,VWS V12.07,2013-06-09 06:34:00,
2013-06-08 23:35:00,52.3,38.8,29.83,North,0,0.0,12.0,60,0.00,,---,0.00,VWS V12.07,2013-06-09 06:35:00,
2013-06-08 23:37:00,52.3,39.3,29.83,North,0,0.0,12.0,61,0.00,,---,0.00,VWS V12.07,2013-06-09 06:37:00,
2013-06-08 23:39:00,52.2,39.2,29.83,North,0,0.0,12.0,61,0.00,,---,0.00,VWS V12.07,2013-06-09 06:39:00,
2013-06-08 23:40:00,52.2,39.2,29.83,North,0,0.0,12.0,61,0.00,,---,0.00,VWS V12.07,2013-06-09 06:40:00,
2013-06-08 23:41:00,52.0,39.0,29.83,North,0,0.0,12.0,61,0.00,,---,0.00,VWS V12.07,2013-06-09 06:41:00,
2013-06-08 23:42:00,52.0,39.0,29.83,North,0,0.0,12.0,61,0.00,,---,0.00,VWS V12.07,2013-06-09 06:42:00,
2013-06-08 23:44:00,51.9,38.9,29.83,North,0,0.0,12.0,61,0.00,,---,0.00,VWS V12.07,2013-06-09 06:44:00,
2013-06-08 23:45:00,51.9,38.9,29.83,North,0,0.0,12.0,61,0.00,,---,0.00,VWS V12.07,2013-06-09 06:45:00,
2013-06-08 23:46:00,51.9,38.9,29.83,North,0,0.0,12.0,61,0.00,,---,0.00,VWS V12.07,2013-06-09 06:46:00,
2013-06-08 23:47:00,51.7,38.7,29.83,North,0,0.0,12.0,61,0.00,,---,0.00,VWS V12.07,2013-06-09 06:47:00,
2013-06-08 23:50:00,51.7,38.7,29.83,North,0,0.0,12.0,61,0.00,,---,0.00,VWS V12.07,2013-06-09 06:50:00,
2013-06-08 23:51:00,51.7,38.7,29.83,North,0,0.0,12.0,61,0.00,,---,0.00,VWS V12.07,2013-06-09 06:51:00,
2013-06-08 23:52:00,51.7,38.7,29.83,North,0,0.0,12.0,61,0.00,,---,0.00,VWS V12.07,2013-06-09 06:52:00,
2013-06-08 23:55:00,51.6,38.6,29.83,North,0,0.0,12.0,61,0.00,,---,0.00,VWS V12.07,2013-06-09 06:55:00,
2013-06-08 23:56:00,51.6,38.2,29.83,North,0,0.0,12.0,60,0.00,,---,0.00,VWS V12.07,2013-06-09 06:56:00,
2013-06-08 23:57:00,51.4,38.4,29.83,North,0,0.0,12.0,61,0.00,,---,0.00,VWS V12.07,2013-06-09 06:57:00,
2013-06-08 23:58:00,51.4,38.4,29.83,North,0,0.0,12.0,61,0.00,,---,0.00,VWS V12.07,2013-06-09 06:58:00,